Observation data for Sterling City on 05/24/2019      Previous  Date  Next       Current Mesonet Observations  Soil Data  Daily Summary Page  Observations in Plain Language
KSC1 240500Z 12016KT 24/19 A299 RMK A01 T02440188  RH  071%=      5-min Rain = 0
KSC1 240501Z 12016G24KT 24/19 A299 RMK A01 T02440189  RH  071%=      5-min Rain = 0
KSC1 240502Z 12015G20KT 24/19 A299 RMK A01 T02440189  RH  071%=      5-min Rain = 0
KSC1 240503Z 12014G19KT 24/19 A299 RMK A01 T02440189  RH  071%=      5-min Rain = 0
KSC1 240504Z 12014KT 24/19 A299 RMK A01 T02440189  RH  071%=      5-min Rain = 0
KSC1 240505Z 12014KT 24/19 A299 RMK A01 T02440189  RH  071%=      5-min Rain = 0
KSC1 240506Z 12013KT 24/19 A299 RMK A01 T02440189  RH  072%=      5-min Rain = 0
KSC1 240507Z 12014KT 24/19 A2989 RMK A01 T02430189  RH  072%=      5-min Rain = 0
KSC1 240508Z 12015KT 24/19 A2989 RMK A01 T02430189  RH  072%=      5-min Rain = 0
KSC1 240509Z 12014KT 24/19 A2989 RMK A01 T02430189  RH  072%=      5-min Rain = 0
KSC1 240510Z 12013G18KT 24/19 A2989 RMK A01 T02430189  RH  072%=      5-min Rain = 0
KSC1 240511Z 12016KT 24/19 A2989 RMK A01 T02420189  RH  072%=      5-min Rain = 0
KSC1 240512Z 12015G22KT 24/19 A2989 RMK A01 T02420189  RH  072%=      5-min Rain = 0
KSC1 240513Z 12015G20KT 24/19 A2989 RMK A01 T02420189  RH  072%=      5-min Rain = 0
KSC1 240514Z 12016KT 24/19 A2989 RMK A01 T02420189  RH  072%=      5-min Rain = 0
KSC1 240515Z 11012KT 24/19 A2989 RMK A01 T02420189  RH  072%=      5-min Rain = 0
KSC1 240516Z 12014KT 24/19 A2989 RMK A01 T02410189  RH  073%=      5-min Rain = 0
KSC1 240517Z 12013KT 24/19 A2989 RMK A01 T02410189  RH  073%=      5-min Rain = 0
KSC1 240518Z 11016KT 24/19 A2989 RMK A01 T02400189  RH  073%=      5-min Rain = 0
KSC1 240519Z 12012KT 24/19 A2989 RMK A01 T02400190  RH  074%=      5-min Rain = 0
KSC1 240520Z 12016KT 24/19 A2989 RMK A01 T02390190  RH  074%=      5-min Rain = 0
KSC1 240521Z 12017KT 24/19 A2989 RMK A01 T02390189  RH  074%=      5-min Rain = 0
KSC1 240522Z 12017KT 24/19 A2989 RMK A01 T02400190  RH  073%=      5-min Rain = 0
KSC1 240523Z 12014KT 24/19 A2989 RMK A01 T02410190  RH  073%=      5-min Rain = 0
KSC1 240524Z 12012G17KT 24/19 A2989 RMK A01 T02410190  RH  073%=      5-min Rain = 0
KSC1 240525Z 12013G19KT 24/19 A2989 RMK A01 T02400190  RH  074%=      5-min Rain = 0
KSC1 240526Z 12014G19KT 24/19 A2989 RMK A01 T02400190  RH  074%=      5-min Rain = 0
KSC1 240527Z 12019KT 24/19 A2989 RMK A01 T02400190  RH  074%=      5-min Rain = 0
KSC1 240528Z 12014KT 24/19 A2989 RMK A01 T02400190  RH  074%=      5-min Rain = 0
KSC1 240529Z 12015G22KT 24/19 A2989 RMK A01 T02400190  RH  074%=      5-min Rain = 0
KSC1 240530Z 12013G18KT 24/19 A2989 RMK A01 T02400190  RH  074%=      5-min Rain = 0
KSC1 240531Z 12015G20KT 24/19 A2989 RMK A01 T02390190  RH  074%=      5-min Rain = 0
KSC1 240532Z 13017KT 24/19 A2989 RMK A01 T02390190  RH  074%=      5-min Rain = 0
KSC1 240533Z 12014KT 24/19 A2989 RMK A01 T02390191  RH  074%=      5-min Rain = 0
KSC1 240534Z 12011G16KT 24/19 A2989 RMK A01 T02390191  RH  074%=      5-min Rain = 0
KSC1 240535Z 13013G19KT 24/19 A2989 RMK A01 T02380190  RH  075%=      5-min Rain = 0
KSC1 240536Z 12015G23KT 24/19 A2989 RMK A01 T02380191  RH  075%=      5-min Rain = 0
KSC1 240537Z 12016KT 24/19 A2989 RMK A01 T02380191  RH  075%=      5-min Rain = 0
KSC1 240538Z 12014KT 24/19 A2989 RMK A01 T02380191  RH  075%=      5-min Rain = 0
KSC1 240539Z 13014KT 24/19 A2989 RMK A01 T02380190  RH  075%=      5-min Rain = 0
KSC1 240540Z 13012G17KT 24/19 A2989 RMK A01 T02380191  RH  075%=      5-min Rain = 0
KSC1 240541Z 12012KT 24/19 A2989 RMK A01 T02380191  RH  075%=      5-min Rain = 0
KSC1 240542Z 13012KT 24/19 A2989 RMK A01 T02380191  RH  075%=      5-min Rain = 0
KSC1 240543Z 13014G19KT 24/19 A2989 RMK A01 T02380191  RH  075%=      5-min Rain = 0
KSC1 240544Z 12014G19KT 24/19 A2989 RMK A01 T02380191  RH  075%=      5-min Rain = 0
KSC1 240545Z 13013KT 24/19 A2989 RMK A01 T02380191  RH  075%=      5-min Rain = 0
KSC1 240546Z 13015KT 24/19 A2989 RMK A01 T02390191  RH  075%=      5-min Rain = 0
KSC1 240547Z 13012KT 24/19 A2989 RMK A01 T02390191  RH  075%=      5-min Rain = 0
KSC1 240548Z 13015KT 24/19 A2989 RMK A01 T02390191  RH  075%=      5-min Rain = 0
KSC1 240549Z 12013KT 24/19 A2989 RMK A01 T02390191  RH  075%=      5-min Rain = 0
KSC1 240550Z 13013KT 24/19 A2989 RMK A01 T02390191  RH  074%=      5-min Rain = 0
KSC1 240551Z 12015KT 24/19 A2989 RMK A01 T02390191  RH  075%=      5-min Rain = 0
KSC1 240552Z 13015KT 24/19 A2989 RMK A01 T02390191  RH  074%=      5-min Rain = 0
KSC1 240553Z 13014KT 24/19 A2989 RMK A01 T02390191  RH  075%=      5-min Rain = 0
KSC1 240554Z 13015KT 24/19 A2989 RMK A01 T02390192  RH  075%=      5-min Rain = 0
KSC1 240555Z 12014KT 24/19 A2989 RMK A01 T02390192  RH  075%=      5-min Rain = 0
KSC1 240556Z 13013KT 24/19 A2989 RMK A01 T02390192  RH  075%=      5-min Rain = 0
KSC1 240557Z 13014G19KT 24/19 A2989 RMK A01 T02390192  RH  075%=      5-min Rain = 0
KSC1 240558Z 13014KT 24/19 A2989 RMK A01 T02390192  RH  075%=      5-min Rain = 0
KSC1 240559Z 13014KT 24/19 A2989 RMK A01 T02400192  RH  075%=      5-min Rain = 0
KSC1 240600Z 13017KT 24/19 A2989 RMK A01 T02400192  RH  075%=      5-min Rain = 0
KSC1 240601Z 13015KT 24/19 A2989 RMK A01 T02400192  RH  075%=      5-min Rain = 0
KSC1 240602Z 13016KT 24/19 A2989 RMK A01 T02400192  RH  075%=      5-min Rain = 0
KSC1 240603Z 13013KT 24/19 A2989 RMK A01 T02400192  RH  075%=      5-min Rain = 0
KSC1 240604Z 13012KT 24/19 A2989 RMK A01 T02410193  RH  075%=      5-min Rain = 0
KSC1 240605Z 13013G18KT 24/19 A2989 RMK A01 T02410193  RH  075%=      5-min Rain = 0
KSC1 240606Z 13011KT 24/19 A2989 RMK A01 T02400193  RH  075%=      5-min Rain = 0
KSC1 240607Z 13014KT 24/19 A2989 RMK A01 T02410193  RH  075%=      5-min Rain = 0
KSC1 240608Z 13011G16KT 24/19 A2989 RMK A01 T02400193  RH  075%=      5-min Rain = 0
KSC1 240609Z 13013KT 24/19 A2989 RMK A01 T02400193  RH  075%=      5-min Rain = 0
KSC1 240610Z 13016KT 24/19 A2989 RMK A01 T02400193  RH  075%=      5-min Rain = 0
KSC1 240611Z 12015G20KT 24/19 A2989 RMK A01 T02400192  RH  074%=      5-min Rain = 0
KSC1 240612Z 13013KT 24/19 A2989 RMK A01 T02400192  RH  074%=      5-min Rain = 0
KSC1 240613Z 12013KT 24/19 A2989 RMK A01 T02400192  RH  074%=      5-min Rain = 0
KSC1 240614Z 12011KT 24/19 A2989 RMK A01 T02400192  RH  075%=      5-min Rain = 0
KSC1 240615Z 12014KT 24/19 A2989 RMK A01 T02400192  RH  075%=      5-min Rain = 0
KSC1 240616Z 13012KT 24/19 A2989 RMK A01 T02390192  RH  075%=      5-min Rain = 0
KSC1 240617Z 12012KT 24/19 A2989 RMK A01 T02390192  RH  075%=      5-min Rain = 0
KSC1 240618Z 12013G20KT 24/19 A2989 RMK A01 T02390192  RH  075%=      5-min Rain = 0
KSC1 240619Z 13014KT 24/19 A2989 RMK A01 T02390192  RH  075%=      5-min Rain = 0
KSC1 240620Z 12014KT 24/19 A2989 RMK A01 T02390192  RH  075%=      5-min Rain = 0
KSC1 240621Z 12017KT 24/19 A2989 RMK A01 T02390192  RH  075%=      5-min Rain = 0
KSC1 240622Z 12015KT 24/19 A2989 RMK A01 T02400192  RH  075%=      5-min Rain = 0
KSC1 240623Z 12013KT 24/19 A2989 RMK A01 T02400192  RH  075%=      5-min Rain = 0
KSC1 240624Z 12011KT 24/19 A2989 RMK A01 T02400193  RH  075%=      5-min Rain = 0
KSC1 240625Z 13014KT 24/19 A2989 RMK A01 T02400193  RH  075%=      5-min Rain = 0
KSC1 240626Z 13012KT 24/19 A2989 RMK A01 T02400193  RH  075%=      5-min Rain = 0
KSC1 240627Z 13011KT 24/19 A2989 RMK A01 T02390193  RH  075%=      5-min Rain = 0
KSC1 240628Z 12014KT 24/19 A2989 RMK A01 T02390194  RH  076%=      5-min Rain = 0
KSC1 240629Z 13014KT 24/19 A2989 RMK A01 T02390194  RH  076%=      5-min Rain = 0
KSC1 240630Z 13013KT 24/19 A2989 RMK A01 T02390194  RH  076%=      5-min Rain = 0
KSC1 240631Z 12013KT 24/19 A2989 RMK A01 T02390194  RH  076%=      5-min Rain = 0
KSC1 240632Z 13013KT 24/19 A2989 RMK A01 T02390194  RH  076%=      5-min Rain = 0
KSC1 240633Z 13013KT 24/19 A2989 RMK A01 T02390194  RH  076%=      5-min Rain = 0
KSC1 240634Z 12011KT 24/19 A2989 RMK A01 T02390194  RH  076%=      5-min Rain = 0
KSC1 240635Z 13013KT 24/20 A2989 RMK A01 T02390195  RH  076%=      5-min Rain = 0
KSC1 240636Z 12014G19KT 24/20 A2989 RMK A01 T02390195  RH  076%=      5-min Rain = 0
KSC1 240637Z 12013G18KT 24/20 A2989 RMK A01 T02390195  RH  076%=      5-min Rain = 0
KSC1 240638Z 13016KT 24/20 A2989 RMK A01 T02390195  RH  076%=      5-min Rain = 0
KSC1 240639Z 13015KT 24/19 A2989 RMK A01 T02390194  RH  076%=      5-min Rain = 0
KSC1 240640Z 12013KT 24/20 A2989 RMK A01 T02390195  RH  076%=      5-min Rain = 0
KSC1 240641Z 13010KT 24/20 A2989 RMK A01 T02390195  RH  076%=      5-min Rain = 0
KSC1 240642Z 12013KT 24/20 A2989 RMK A01 T02390195  RH  077%=      5-min Rain = 0
KSC1 240643Z 13014KT 24/20 A2989 RMK A01 T02380195  RH  077%=      5-min Rain = 0
KSC1 240644Z 12014KT 24/20 A2989 RMK A01 T02380195  RH  077%=      5-min Rain = 0
KSC1 240645Z 13013KT 24/20 A2989 RMK A01 T02380195  RH  077%=      5-min Rain = 0
KSC1 240646Z 13015KT 24/20 A2989 RMK A01 T02380195  RH  077%=      5-min Rain = 0
KSC1 240647Z 13014KT 24/20 A2989 RMK A01 T02380195  RH  077%=      5-min Rain = 0
KSC1 240648Z 12015G20KT 24/20 A2989 RMK A01 T02380195  RH  077%=      5-min Rain = 0
KSC1 240649Z 13013KT 24/20 A2989 RMK A01 T02380195  RH  077%=      5-min Rain = 0
KSC1 240650Z 13011G17KT 24/20 A2989 RMK A01 T02380195  RH  077%=      5-min Rain = 0
KSC1 240651Z 13014KT 24/20 A2989 RMK A01 T02380195  RH  077%=      5-min Rain = 0
KSC1 240652Z 13012G17KT 24/20 A2989 RMK A01 T02380196  RH  077%=      5-min Rain = 0
KSC1 240653Z 12014G19KT 24/20 A2989 RMK A01 T02380195  RH  077%=      5-min Rain = 0
KSC1 240654Z 13015KT 24/20 A2989 RMK A01 T02380196  RH  077%=      5-min Rain = 0
KSC1 240655Z 13012KT 24/20 A2989 RMK A01 T02370196  RH  077%=      5-min Rain = 0
KSC1 240656Z 13012G17KT 24/20 A2989 RMK A01 T02370196  RH  078%=      5-min Rain = 0
KSC1 240657Z 13012KT 24/20 A2989 RMK A01 T02370196  RH  078%=      5-min Rain = 0
KSC1 240658Z 13011KT 24/20 A2989 RMK A01 T02370196  RH  078%=      5-min Rain = 0
KSC1 240659Z 13011KT 24/20 A2989 RMK A01 T02360196  RH  078%=      5-min Rain = 0
KSC1 240700Z 13011G16KT 24/20 A2989 RMK A01 T02360196  RH  078%=      5-min Rain = 0
KSC1 240701Z 13010KT 24/20 A2989 RMK A01 T02360196  RH  078%=      5-min Rain = 0
KSC1 240702Z 13011KT 24/20 A2989 RMK A01 T02360196  RH  079%=      5-min Rain = 0
KSC1 240703Z 13010KT 24/20 A2989 RMK A01 T02350196  RH  079%=      5-min Rain = 0
KSC1 240704Z 13010KT 24/20 A2989 RMK A01 T02350197  RH  079%=      5-min Rain = 0
KSC1 240705Z 13013KT 24/20 A2989 RMK A01 T02350197  RH  079%=      5-min Rain = 0
KSC1 240706Z 13011KT 24/20 A2989 RMK A01 T02350197  RH  079%=      5-min Rain = 0
KSC1 240707Z 13012KT 24/20 A2989 RMK A01 T02350197  RH  079%=      5-min Rain = 0
KSC1 240708Z 14010KT 24/20 A2989 RMK A01 T02350197  RH  079%=      5-min Rain = 0
KSC1 240709Z 13014KT 24/20 A2989 RMK A01 T02350197  RH  079%=      5-min Rain = 0
KSC1 240710Z 13011KT 24/20 A2989 RMK A01 T02350197  RH  079%=      5-min Rain = 0
KSC1 240711Z 13011KT 23/20 A2989 RMK A01 T02340197  RH  079%=      5-min Rain = 0
KSC1 240712Z 13012G17KT 23/20 A2989 RMK A01 T02340197  RH  079%=      5-min Rain = 0
KSC1 240713Z 13010G15KT 24/20 A2989 RMK A01 T02350197  RH  079%=      5-min Rain = 0
KSC1 240714Z 13013KT 24/20 A2989 RMK A01 T02350197  RH  079%=      5-min Rain = 0
KSC1 240715Z 13012KT 24/20 A2989 RMK A01 T02350197  RH  079%=      5-min Rain = 0
KSC1 240716Z 13011KT 24/20 A2989 RMK A01 T02350197  RH  079%=      5-min Rain = 0
KSC1 240717Z 13013KT 24/20 A2989 RMK A01 T02350197  RH  079%=      5-min Rain = 0
KSC1 240718Z 14014KT 24/20 A2989 RMK A01 T02350197  RH  079%=      5-min Rain = 0
KSC1 240719Z 13011KT 24/20 A2989 RMK A01 T02350197  RH  080%=      5-min Rain = 0
KSC1 240720Z 12011KT 23/20 A2989 RMK A01 T02340197  RH  080%=      5-min Rain = 0
KSC1 240721Z 13009KT 23/20 A2989 RMK A01 T02340198  RH  080%=      5-min Rain = 0
KSC1 240722Z 13009KT 23/20 A2989 RMK A01 T02340198  RH  080%=      5-min Rain = 0
KSC1 240723Z 13007KT 23/20 A2989 RMK A01 T02340198  RH  080%=      5-min Rain = 0
KSC1 240724Z 13011KT 23/20 A2989 RMK A01 T02330198  RH  081%=      5-min Rain = 0
KSC1 240725Z 12008KT 23/20 A2989 RMK A01 T02330198  RH  081%=      5-min Rain = 0
KSC1 240726Z 13009KT 23/20 A2989 RMK A01 T02330198  RH  081%=      5-min Rain = 0
KSC1 240727Z 13009KT 23/20 A2989 RMK A01 T02330198  RH  081%=      5-min Rain = 0
KSC1 240728Z 13010KT 23/20 A2989 RMK A01 T02320198  RH  081%=      5-min Rain = 0
KSC1 240729Z 13007KT 23/20 A2989 RMK A01 T02320199  RH  081%=      5-min Rain = 0
KSC1 240730Z 13011KT 23/20 A2989 RMK A01 T02320199  RH  082%=      5-min Rain = 0
KSC1 240731Z 13010KT 23/20 A2989 RMK A01 T02320199  RH  082%=      5-min Rain = 0
KSC1 240732Z 13011KT 23/20 A2989 RMK A01 T02320199  RH  082%=      5-min Rain = 0
KSC1 240733Z 13009KT 23/20 A2989 RMK A01 T02320199  RH  081%=      5-min Rain = 0
KSC1 240734Z 14008KT 23/20 A2989 RMK A01 T02320199  RH  081%=      5-min Rain = 0
KSC1 240735Z 13007KT 23/20 A2989 RMK A01 T02320199  RH  081%=      5-min Rain = 0
KSC1 240736Z 13007KT 23/20 A2989 RMK A01 T02320199  RH  082%=      5-min Rain = 0
KSC1 240737Z 13009KT 23/20 A2989 RMK A01 T02320199  RH  082%=      5-min Rain = 0
KSC1 240738Z 13010KT 23/20 A2989 RMK A01 T02320199  RH  082%=      5-min Rain = 0
KSC1 240739Z 13008KT 23/20 A2989 RMK A01 T02320199  RH  082%=      5-min Rain = 0
KSC1 240740Z 13009KT 23/20 A2989 RMK A01 T02320199  RH  082%=      5-min Rain = 0
KSC1 240741Z 13008KT 23/20 A2989 RMK A01 T02320199  RH  082%=      5-min Rain = 0
KSC1 240742Z 13008KT 23/20 A2989 RMK A01 T02320200  RH  082%=      5-min Rain = 0
KSC1 240743Z 13009KT 23/20 A2989 RMK A01 T02320200  RH  082%=      5-min Rain = 0
KSC1 240744Z 13008KT 23/20 A2989 RMK A01 T02320200  RH  082%=      5-min Rain = 0
KSC1 240745Z 13009KT 23/20 A2989 RMK A01 T02320200  RH  082%=      5-min Rain = 0
KSC1 240746Z 13008KT 23/20 A2989 RMK A01 T02320200  RH  082%=      5-min Rain = 0
KSC1 240747Z 13007KT 23/20 A2989 RMK A01 T02320200  RH  082%=      5-min Rain = 0
KSC1 240748Z 13006KT 23/20 A2989 RMK A01 T02320200  RH  083%=      5-min Rain = 0
KSC1 240749Z 13008KT 23/20 A2989 RMK A01 T02310201  RH  083%=      5-min Rain = 0
KSC1 240750Z 13008KT 23/20 A2989 RMK A01 T02310201  RH  083%=      5-min Rain = 0
KSC1 240751Z 13006KT 23/20 A2989 RMK A01 T02300201  RH  083%=      5-min Rain = 0
KSC1 240752Z 13006KT 23/20 A2989 RMK A01 T02300201  RH  084%=      5-min Rain = 0
KSC1 240753Z 13007KT 23/20 A2989 RMK A01 T02300201  RH  084%=      5-min Rain = 0
KSC1 240754Z 13006KT 23/20 A2989 RMK A01 T02300202  RH  084%=      5-min Rain = 0
KSC1 240755Z 12007KT 23/20 A2989 RMK A01 T02300201  RH  084%=      5-min Rain = 0
KSC1 240756Z 12006KT 23/20 A2989 RMK A01 T02300202  RH  084%=      5-min Rain = 0
KSC1 240757Z 13008KT 23/20 A2989 RMK A01 T02290201  RH  084%=      5-min Rain = 0
KSC1 240758Z 13008KT 23/20 A2989 RMK A01 T02290202  RH  084%=      5-min Rain = 0
KSC1 240759Z 13007KT 23/20 A2989 RMK A01 T02290202  RH  084%=      5-min Rain = 0
KSC1 240800Z 12007KT 23/20 A2989 RMK A01 T02290202  RH  085%=      5-min Rain = 0
KSC1 240801Z 12006KT 23/20 A2989 RMK A01 T02300202  RH  085%=      5-min Rain = 0
KSC1 240802Z 13007KT 23/20 A2989 RMK A01 T02290202  RH  085%=      5-min Rain = 0
KSC1 240803Z 13006KT 23/20 A2989 RMK A01 T02290203  RH  085%=      5-min Rain = 0
KSC1 240804Z 13007KT 23/20 A2989 RMK A01 T02290203  RH  085%=      5-min Rain = 0
KSC1 240805Z 13009KT 23/20 A2989 RMK A01 T02290203  RH  085%=      5-min Rain = 0
KSC1 240806Z 13008KT 23/20 A2989 RMK A01 T02290203  RH  085%=      5-min Rain = 0
KSC1 240807Z 12007KT 23/20 A2989 RMK A01 T02290203  RH  086%=      5-min Rain = 0
KSC1 240808Z 12006KT 23/20 A2989 RMK A01 T02280203  RH  086%=      5-min Rain = 0
KSC1 240809Z 12005KT 23/20 A2989 RMK A01 T02280203  RH  086%=      5-min Rain = 0
KSC1 240810Z 13006KT 23/20 A2989 RMK A01 T02270203  RH  086%=      5-min Rain = 0
KSC1 240811Z 13006KT 23/20 A2989 RMK A01 T02270204  RH  087%=      5-min Rain = 0
KSC1 240812Z 13007KT 23/20 A299 RMK A01 T02270204  RH  087%=      5-min Rain = 0
KSC1 240813Z 13006KT 23/21 A299 RMK A01 T02270205  RH  087%=      5-min Rain = 0
KSC1 240814Z 13008KT 23/21 A299 RMK A01 T02270205  RH  087%=      5-min Rain = 0
KSC1 240815Z 13004KT 23/21 A299 RMK A01 T02270205  RH  087%=      5-min Rain = 0
KSC1 240816Z 13006KT 23/21 A299 RMK A01 T02270205  RH  088%=      5-min Rain = 0
KSC1 240817Z 13006KT 23/21 A299 RMK A01 T02270205  RH  088%=      5-min Rain = 0
KSC1 240818Z 13005KT 23/21 A299 RMK A01 T02260205  RH  088%=      5-min Rain = 0
KSC1 240819Z 13006KT 23/21 A299 RMK A01 T02260206  RH  088%=      5-min Rain = 0
KSC1 240820Z 13008KT 23/21 A299 RMK A01 T02260206  RH  089%=      5-min Rain = 0
KSC1 240821Z 13005KT 23/21 A299 RMK A01 T02260207  RH  089%=      5-min Rain = 0
KSC1 240822Z 12005KT 23/21 A299 RMK A01 T02260207  RH  089%=      5-min Rain = 0
KSC1 240823Z 13005KT 23/21 A299 RMK A01 T02250207  RH  089%=      5-min Rain = 0
KSC1 240824Z 12007KT 23/21 A299 RMK A01 T02250207  RH  090%=      5-min Rain = 0
KSC1 240825Z 13005KT 23/21 A299 RMK A01 T02250208  RH  090%=      5-min Rain = 0
KSC1 240826Z 12007KT 23/21 A299 RMK A01 T02250208  RH  090%=      5-min Rain = 0
KSC1 240827Z 13006KT 23/21 A299 RMK A01 T02250209  RH  091%=      5-min Rain = 0
KSC1 240828Z 12006KT 23/21 A299 RMK A01 T02250209  RH  091%=      5-min Rain = 0
KSC1 240829Z 13007KT 22/21 A299 RMK A01 T02240209  RH  091%=      5-min Rain = 0
KSC1 240830Z 13006KT 23/21 A299 RMK A01 T02250209  RH  091%=      5-min Rain = 0
KSC1 240831Z 13006KT 23/21 A299 RMK A01 T02250209  RH  091%=      5-min Rain = 0
KSC1 240832Z 13007KT 23/21 A299 RMK A01 T02250210  RH  091%=      5-min Rain = 0
KSC1 240833Z 13008KT 23/21 A299 RMK A01 T02250210  RH  091%=      5-min Rain = 0
KSC1 240834Z 13006KT 23/21 A299 RMK A01 T02250209  RH  091%=      5-min Rain = 0
KSC1 240835Z 13007KT 23/21 A299 RMK A01 T02260209  RH  090%=      5-min Rain = 0
KSC1 240836Z 13007KT 23/21 A299 RMK A01 T02260210  RH  090%=      5-min Rain = 0
KSC1 240837Z 13007KT 23/21 A299 RMK A01 T02260210  RH  090%=      5-min Rain = 0
KSC1 240838Z 13007KT 23/21 A299 RMK A01 T02260210  RH  090%=      5-min Rain = 0
KSC1 240839Z 13008KT 23/21 A299 RMK A01 T02260210  RH  090%=      5-min Rain = 0
KSC1 240840Z 13009KT 23/21 A299 RMK A01 T02260210  RH  090%=      5-min Rain = 0
KSC1 240841Z 13007KT 23/21 A299 RMK A01 T02260210  RH  090%=      5-min Rain = 0
KSC1 240842Z 13008KT 23/21 A299 RMK A01 T02270210  RH  090%=      5-min Rain = 0
KSC1 240843Z 14007KT 23/21 A299 RMK A01 T02270210  RH  090%=      5-min Rain = 0
KSC1 240844Z 14009KT 23/21 A299 RMK A01 T02270210  RH  090%=      5-min Rain = 0
KSC1 240845Z 13008G13KT 23/21 A299 RMK A01 T02270210  RH  090%=      5-min Rain = 0
KSC1 240846Z 13010KT 23/21 A299 RMK A01 T02280210  RH  090%=      5-min Rain = 0
KSC1 240847Z 13009KT 23/21 A299 RMK A01 T02280210  RH  089%=      5-min Rain = 0
KSC1 240848Z 13010KT 23/21 A299 RMK A01 T02290210  RH  089%=      5-min Rain = 0
KSC1 240849Z 13008KT 23/21 A299 RMK A01 T02290209  RH  089%=      5-min Rain = 0
KSC1 240850Z 14009KT 23/21 A299 RMK A01 T02290210  RH  089%=      5-min Rain = 0
KSC1 240851Z 13008G13KT 23/21 A299 RMK A01 T02300209  RH  088%=      5-min Rain = 0
KSC1 240852Z 13009KT 23/21 A299 RMK A01 T02300209  RH  088%=      5-min Rain = 0
KSC1 240853Z 14008KT 23/21 A299 RMK A01 T02300209  RH  088%=      5-min Rain = 0
KSC1 240854Z 14006KT 23/21 A299 RMK A01 T02300209  RH  088%=      5-min Rain = 0
KSC1 240855Z 13008KT 23/21 A299 RMK A01 T02310209  RH  088%=      5-min Rain = 0
KSC1 240856Z 14008KT 23/21 A299 RMK A01 T02310208  RH  087%=      5-min Rain = 0
KSC1 240857Z 14008KT 23/21 A299 RMK A01 T02320209  RH  087%=      5-min Rain = 0
KSC1 240858Z 15010KT 23/21 A299 RMK A01 T02320208  RH  086%=      5-min Rain = 0
KSC1 240859Z 14009G14KT 23/21 A299 RMK A01 T02330208  RH  086%=      5-min Rain = 0
KSC1 240900Z 14009G18KT 23/21 A299 RMK A01 T02340207  RH  085%=      5-min Rain = 0
KSC1 240901Z 14012KT 24/21 A299 RMK A01 T02350206  RH  084%=      5-min Rain = 0
KSC1 240902Z 14008KT 24/21 A299 RMK A01 T02350207  RH  084%=      5-min Rain = 0
KSC1 240903Z 14008KT 24/21 A299 RMK A01 T02360207  RH  084%=      5-min Rain = 0
KSC1 240904Z 14009KT 24/21 A299 RMK A01 T02360206  RH  084%=      5-min Rain = 0
KSC1 240905Z 14010KT 24/21 A299 RMK A01 T02350205  RH  083%=      5-min Rain = 0
KSC1 240906Z 14012G17KT 24/21 A299 RMK A01 T02360205  RH  083%=      5-min Rain = 0
KSC1 240907Z 14012KT 24/20 A299 RMK A01 T02360204  RH  082%=      5-min Rain = 0
KSC1 240908Z 15013KT 24/20 A299 RMK A01 T02370204  RH  082%=      5-min Rain = 0
KSC1 240909Z 15016KT 24/20 A299 RMK A01 T02370203  RH  081%=      5-min Rain = 0
KSC1 240910Z 14011G17KT 24/20 A299 RMK A01 T02380202  RH  080%=      5-min Rain = 0
KSC1 240911Z 15014G20KT 24/20 A299 RMK A01 T02380202  RH  080%=      5-min Rain = 0
KSC1 240912Z 15014KT 24/20 A299 RMK A01 T02390202  RH  080%=      5-min Rain = 0
KSC1 240913Z 15014KT 24/20 A299 RMK A01 T02390201  RH  079%=      5-min Rain = 0
KSC1 240914Z 14010KT 24/20 A299 RMK A01 T02390201  RH  079%=      5-min Rain = 0
KSC1 240915Z 15014G20KT 24/20 A299 RMK A01 T02390201  RH  080%=      5-min Rain = 0
KSC1 240916Z 14010KT 24/20 A299 RMK A01 T02390202  RH  080%=      5-min Rain = 0
KSC1 240917Z 15013KT 24/20 A299 RMK A01 T02380201  RH  080%=      5-min Rain = 0
KSC1 240918Z 14011KT 24/20 A299 RMK A01 T02390201  RH  080%=      5-min Rain = 0
KSC1 240919Z 15014KT 24/20 A299 RMK A01 T02390201  RH  079%=      5-min Rain = 0
KSC1 240920Z 14012KT 24/20 A299 RMK A01 T02390201  RH  079%=      5-min Rain = 0
KSC1 240921Z 14012KT 24/20 A299 RMK A01 T02390200  RH  079%=      5-min Rain = 0
KSC1 240922Z 14014KT 24/20 A299 RMK A01 T02390199  RH  078%=      5-min Rain = 0
KSC1 240923Z 14013G18KT 24/20 A299 RMK A01 T02390198  RH  078%=      5-min Rain = 0
KSC1 240924Z 15013G18KT 24/20 A299 RMK A01 T02390196  RH  077%=      5-min Rain = 0
KSC1 240925Z 14012G20KT 24/20 A299 RMK A01 T02390196  RH  077%=      5-min Rain = 0
KSC1 240926Z 15008KT 24/20 A299 RMK A01 T02390197  RH  077%=      5-min Rain = 0
KSC1 240927Z 15011G17KT 24/20 A299 RMK A01 T02390197  RH  078%=      5-min Rain = 0
KSC1 240928Z 14010KT 24/20 A299 RMK A01 T02380197  RH  078%=      5-min Rain = 0
KSC1 240929Z 15011KT 24/20 A299 RMK A01 T02380197  RH  078%=      5-min Rain = 0
KSC1 240930Z 15013G18KT 24/20 A299 RMK A01 T02380197  RH  078%=      5-min Rain = 0
KSC1 240931Z 14012G17KT 24/20 A299 RMK A01 T02380196  RH  077%=      5-min Rain = 0
KSC1 240932Z 14010KT 24/20 A299 RMK A01 T02380196  RH  077%=      5-min Rain = 0
KSC1 240933Z 14020KT 24/20 A299 RMK A01 T02380195  RH  077%=      5-min Rain = 0
KSC1 240934Z 15017G23KT 24/19 A299 RMK A01 T02380193  RH  076%=      5-min Rain = 0
KSC1 240935Z 14017KT 24/19 A299 RMK A01 T02390193  RH  075%=      5-min Rain = 0
KSC1 240936Z 14016G22KT 24/19 A299 RMK A01 T02390193  RH  075%=      5-min Rain = 0
KSC1 240937Z 14018KT 24/19 A299 RMK A01 T02390193  RH  075%=      5-min Rain = 0
KSC1 240938Z 15017KT 24/19 A299 RMK A01 T02390192  RH  075%=      5-min Rain = 0
KSC1 240939Z 15014G19KT 24/19 A299 RMK A01 T02390192  RH  075%=      5-min Rain = 0
KSC1 240940Z 14013KT 24/19 A299 RMK A01 T02390192  RH  075%=      5-min Rain = 0
KSC1 240941Z 14015G21KT 24/19 A299 RMK A01 T02390192  RH  075%=      5-min Rain = 0
KSC1 240942Z 15014G20KT 24/19 A299 RMK A01 T02390192  RH  075%=      5-min Rain = 0
KSC1 240943Z 15014KT 24/19 A299 RMK A01 T02390191  RH  075%=      5-min Rain = 0
KSC1 240944Z 14014G21KT 24/19 A299 RMK A01 T02390191  RH  075%=      5-min Rain = 0
KSC1 240945Z 14014G20KT 24/19 A299 RMK A01 T02380191  RH  074%=      5-min Rain = 0
KSC1 240946Z 14013G21KT 24/19 A299 RMK A01 T02380190  RH  074%=      5-min Rain = 0
KSC1 240947Z 15017KT 24/19 A299 RMK A01 T02380190  RH  074%=      5-min Rain = 0
KSC1 240948Z 14013G21KT 24/19 A299 RMK A01 T02390191  RH  074%=      5-min Rain = 0
KSC1 240949Z 14014KT 24/19 A299 RMK A01 T02380190  RH  074%=      5-min Rain = 0
KSC1 240950Z 13012G17KT 24/19 A299 RMK A01 T02380190  RH  074%=      5-min Rain = 0
KSC1 240951Z 13011G18KT 24/19 A299 RMK A01 T02380190  RH  074%=      5-min Rain = 0
KSC1 240952Z 14012KT 24/19 A299 RMK A01 T02380190  RH  075%=      5-min Rain = 0
KSC1 240953Z 14014G19KT 24/19 A299 RMK A01 T02380190  RH  075%=      5-min Rain = 0
KSC1 240954Z 13012KT 24/19 A299 RMK A01 T02370189  RH  074%=      5-min Rain = 0
KSC1 240955Z 13015G20KT 24/19 A299 RMK A01 T02370189  RH  074%=      5-min Rain = 0
KSC1 240956Z 13015G20KT 24/19 A299 RMK A01 T02380189  RH  074%=      5-min Rain = 0
KSC1 240957Z 14015KT 24/19 A299 RMK A01 T02370189  RH  074%=      5-min Rain = 0
KSC1 240958Z 14016KT 24/19 A299 RMK A01 T02380190  RH  074%=      5-min Rain = 0
KSC1 240959Z 14013G19KT 24/19 A299 RMK A01 T02370189  RH  074%=      5-min Rain = 0
KSC1 241000Z 14012KT 24/19 A299 RMK A01 T02370190  RH  075%=      5-min Rain = 0
KSC1 241001Z 14011G17KT 24/19 A299 RMK A01 T02370190  RH  075%=      5-min Rain = 0
KSC1 241002Z 13015KT 24/19 A299 RMK A01 T02370190  RH  075%=      5-min Rain = 0
KSC1 241003Z 13015KT 24/19 A299 RMK A01 T02370190  RH  075%=      5-min Rain = 0
KSC1 241004Z 13015KT 24/19 A299 RMK A01 T02370190  RH  075%=      5-min Rain = 0
KSC1 241005Z 13011KT 24/19 A299 RMK A01 T02370190  RH  075%=      5-min Rain = 0
KSC1 241006Z 13012G17KT 24/19 A299 RMK A01 T02370190  RH  075%=      5-min Rain = 0
KSC1 241007Z 13014KT 24/19 A299 RMK A01 T02370190  RH  075%=      5-min Rain = 0
KSC1 241008Z 14012KT 24/19 A299 RMK A01 T02370190  RH  075%=      5-min Rain = 0
KSC1 241009Z 14010KT 24/19 A299 RMK A01 T02370190  RH  075%=      5-min Rain = 0
KSC1 241010Z 14014G19KT 24/19 A299 RMK A01 T02370190  RH  075%=      5-min Rain = 0
KSC1 241011Z 14013KT 24/19 A299 RMK A01 T02370190  RH  075%=      5-min Rain = 0
KSC1 241012Z 14014G20KT 24/19 A299 RMK A01 T02370190  RH  075%=      5-min Rain = 0
KSC1 241013Z 14008KT 24/19 A299 RMK A01 T02370190  RH  075%=      5-min Rain = 0
KSC1 241014Z 13009KT 24/19 A299 RMK A01 T02360190  RH  075%=      5-min Rain = 0
KSC1 241015Z 14010KT 24/19 A299 RMK A01 T02350190  RH  076%=      5-min Rain = 0
KSC1 241016Z 14013KT 24/19 A299 RMK A01 T02350190  RH  076%=      5-min Rain = 0
KSC1 241017Z 13012KT 24/19 A299 RMK A01 T02350190  RH  076%=      5-min Rain = 0
KSC1 241018Z 12012KT 24/19 A299 RMK A01 T02350190  RH  076%=      5-min Rain = 0
KSC1 241019Z 13011KT 23/19 A299 RMK A01 T02340191  RH  076%=      5-min Rain = 0
KSC1 241020Z 13010KT 23/19 A299 RMK A01 T02340191  RH  077%=      5-min Rain = 0
KSC1 241021Z 13011KT 23/19 A299 RMK A01 T02330191  RH  077%=      5-min Rain = 0
KSC1 241022Z 14010KT 23/19 A299 RMK A01 T02330191  RH  077%=      5-min Rain = 0
KSC1 241023Z 13011KT 23/19 A299 RMK A01 T02330191  RH  077%=      5-min Rain = 0
KSC1 241024Z 13012KT 23/19 A299 RMK A01 T02330191  RH  077%=      5-min Rain = 0
KSC1 241025Z 13011KT 23/19 A299 RMK A01 T02330191  RH  077%=      5-min Rain = 0
KSC1 241026Z 13009KT 23/19 A299 RMK A01 T02330191  RH  077%=      5-min Rain = 0
KSC1 241027Z 13009G14KT 23/19 A299 RMK A01 T02320191  RH  078%=      5-min Rain = 0
KSC1 241028Z 13010G15KT 23/19 A299 RMK A01 T02320191  RH  078%=      5-min Rain = 0
KSC1 241029Z 13009KT 23/19 A2991 RMK A01 T02320192  RH  078%=      5-min Rain = 0
KSC1 241030Z 14010KT 23/19 A2991 RMK A01 T02310191  RH  078%=      5-min Rain = 0
KSC1 241031Z 13011KT 23/19 A2991 RMK A01 T02310191  RH  078%=      5-min Rain = 0
KSC1 241032Z 13011KT 23/19 A2991 RMK A01 T02310191  RH  078%=      5-min Rain = 0
KSC1 241033Z 13013G18KT 23/19 A2991 RMK A01 T02310191  RH  078%=      5-min Rain = 0
KSC1 241034Z 13012KT 23/19 A2991 RMK A01 T02310191  RH  078%=      5-min Rain = 0
KSC1 241035Z 14011KT 23/19 A2991 RMK A01 T02310191  RH  078%=      5-min Rain = 0
KSC1 241036Z 13010KT 23/19 A2991 RMK A01 T02310192  RH  078%=      5-min Rain = 0
KSC1 241037Z 13010KT 23/19 A2991 RMK A01 T02310192  RH  079%=      5-min Rain = 0
KSC1 241038Z 13009KT 23/19 A2991 RMK A01 T02310192  RH  079%=      5-min Rain = 0
KSC1 241039Z 14010KT 23/19 A2991 RMK A01 T02300192  RH  079%=      5-min Rain = 0
KSC1 241040Z 13011KT 23/19 A2991 RMK A01 T02300192  RH  079%=      5-min Rain = 0
KSC1 241041Z 14010KT 23/19 A2991 RMK A01 T02300192  RH  079%=      5-min Rain = 0
KSC1 241042Z 14010KT 23/19 A2992 RMK A01 T02300192  RH  079%=      5-min Rain = 0
KSC1 241043Z 14007G12KT 23/19 A2992 RMK A01 T02300192  RH  079%=      5-min Rain = 0
KSC1 241044Z 14008KT 23/19 A2992 RMK A01 T02310192  RH  079%=      5-min Rain = 0
KSC1 241045Z 14007KT 23/19 A2992 RMK A01 T02310192  RH  079%=      5-min Rain = 0
KSC1 241046Z 14008KT 23/19 A2992 RMK A01 T02310192  RH  079%=      5-min Rain = 0
KSC1 241047Z 14008KT 23/19 A2992 RMK A01 T02310193  RH  079%=      5-min Rain = 0
KSC1 241048Z 15009KT 23/19 A2992 RMK A01 T02310193  RH  079%=      5-min Rain = 0
KSC1 241049Z 14006KT 23/19 A2992 RMK A01 T02320193  RH  079%=      5-min Rain = 0
KSC1 241050Z 14006KT 23/19 A2992 RMK A01 T02320193  RH  079%=      5-min Rain = 0
KSC1 241051Z 14008KT 23/19 A2992 RMK A01 T02320193  RH  079%=      5-min Rain = 0
KSC1 241052Z 14006KT 23/19 A2992 RMK A01 T02320193  RH  079%=      5-min Rain = 0
KSC1 241053Z 15008KT 23/19 A2992 RMK A01 T02320193  RH  079%=      5-min Rain = 0
KSC1 241054Z 14010KT 23/19 A2992 RMK A01 T02320193  RH  079%=      5-min Rain = 0
KSC1 241055Z 14010KT 23/19 A2992 RMK A01 T02320193  RH  079%=      5-min Rain = 0
KSC1 241056Z 14009KT 23/19 A2992 RMK A01 T02320193  RH  079%=      5-min Rain = 0
KSC1 241057Z 14009KT 23/19 A2992 RMK A01 T02320193  RH  079%=      5-min Rain = 0
KSC1 241058Z 14006KT 23/19 A2992 RMK A01 T02320193  RH  079%=      5-min Rain = 0
KSC1 241059Z 14010G15KT 23/19 A2992 RMK A01 T02320194  RH  079%=      5-min Rain = 0
KSC1 241100Z 13007KT 23/19 A2992 RMK A01 T02320194  RH  079%=      5-min Rain = 0
KSC1 241101Z 13009KT 23/19 A2992 RMK A01 T02320194  RH  079%=      5-min Rain = 0
KSC1 241102Z 14008KT 23/19 A2992 RMK A01 T02320194  RH  079%=      5-min Rain = 0
KSC1 241103Z 13009KT 23/19 A2992 RMK A01 T02320194  RH  079%=      5-min Rain = 0
KSC1 241104Z 13011KT 23/19 A2992 RMK A01 T02320194  RH  079%=      5-min Rain = 0
KSC1 241105Z 13011KT 23/19 A2991 RMK A01 T02320194  RH  079%=      5-min Rain = 0
KSC1 241106Z 13014KT 23/19 A2991 RMK A01 T02320194  RH  079%=      5-min Rain = 0
KSC1 241107Z 13010KT 23/19 A2991 RMK A01 T02320194  RH  079%=      5-min Rain = 0
KSC1 241108Z 13011KT 23/19 A2991 RMK A01 T02330194  RH  079%=      5-min Rain = 0
KSC1 241109Z 13011KT 23/19 A2991 RMK A01 T02330194  RH  079%=      5-min Rain = 0
KSC1 241110Z 13010KT 23/19 A2991 RMK A01 T02320194  RH  079%=      5-min Rain = 0
KSC1 241111Z 13012KT 23/19 A2991 RMK A01 T02320194  RH  079%=      5-min Rain = 0
KSC1 241112Z 13010KT 23/20 A2991 RMK A01 T02320195  RH  079%=      5-min Rain = 0
KSC1 241113Z 13013KT 23/20 A2991 RMK A01 T02320195  RH  080%=      5-min Rain = 0
KSC1 241114Z 14010G15KT 23/20 A2991 RMK A01 T02320195  RH  080%=      5-min Rain = 0
KSC1 241115Z 13012KT 23/20 A2991 RMK A01 T02320195  RH  080%=      5-min Rain = 0
KSC1 241116Z 13011KT 23/20 A2991 RMK A01 T02320195  RH  080%=      5-min Rain = 0
KSC1 241117Z 14011KT 23/20 A2991 RMK A01 T02320195  RH  080%=      5-min Rain = 0
KSC1 241118Z 13011KT 23/20 A2991 RMK A01 T02320195  RH  080%=      5-min Rain = 0
KSC1 241119Z 13011KT 23/20 A2991 RMK A01 T02310195  RH  080%=      5-min Rain = 0
KSC1 241120Z 14012G18KT 23/20 A2991 RMK A01 T02310195  RH  080%=      5-min Rain = 0
KSC1 241121Z 13011G16KT 23/20 A2991 RMK A01 T02300195  RH  080%=      5-min Rain = 0
KSC1 241122Z 14013KT 23/20 A2991 RMK A01 T02300195  RH  080%=      5-min Rain = 0
KSC1 241123Z 14012KT 23/20 A2991 RMK A01 T02310195  RH  080%=      5-min Rain = 0
KSC1 241124Z 14011KT 23/19 A2991 RMK A01 T02300194  RH  080%=      5-min Rain = 0
KSC1 241125Z 13010KT 23/20 A2991 RMK A01 T02300195  RH  080%=      5-min Rain = 0
KSC1 241126Z 14010KT 23/20 A2991 RMK A01 T02300195  RH  081%=      5-min Rain = 0
KSC1 241127Z 13011KT 23/20 A2991 RMK A01 T02300195  RH  081%=      5-min Rain = 0
KSC1 241128Z 14013KT 23/20 A2991 RMK A01 T02300195  RH  081%=      5-min Rain = 0
KSC1 241129Z 14009KT 23/20 A2991 RMK A01 T02300195  RH  081%=      5-min Rain = 0
KSC1 241130Z 14008KT 23/20 A2991 RMK A01 T02300195  RH  081%=      5-min Rain = 0
KSC1 241131Z 14010G15KT 23/20 A2991 RMK A01 T02300196  RH  081%=      5-min Rain = 0
KSC1 241132Z 14011G16KT 23/20 A2991 RMK A01 T02290195  RH  081%=      5-min Rain = 0
KSC1 241133Z 14013KT 23/20 A2991 RMK A01 T02290196  RH  081%=      5-min Rain = 0
KSC1 241134Z 14010KT 23/20 A2991 RMK A01 T02290196  RH  081%=      5-min Rain = 0
KSC1 241135Z 14011KT 23/20 A2991 RMK A01 T02290196  RH  081%=      5-min Rain = 0
KSC1 241136Z 14011G16KT 23/20 A2991 RMK A01 T02290196  RH  082%=      5-min Rain = 0
KSC1 241137Z 13011KT 23/20 A2991 RMK A01 T02290196  RH  082%=      5-min Rain = 0
KSC1 241138Z 13015G21KT 23/20 A299 RMK A01 T02290197  RH  082%=      5-min Rain = 0
KSC1 241139Z 14011KT 23/20 A299 RMK A01 T02290197  RH  082%=      5-min Rain = 0
KSC1 241140Z 13014G19KT 23/20 A299 RMK A01 T02290197  RH  082%=      5-min Rain = 0
KSC1 241141Z 13014KT 23/20 A299 RMK A01 T02290197  RH  082%=      5-min Rain = 0
KSC1 241142Z 14012G18KT 23/20 A299 RMK A01 T02300197  RH  082%=      5-min Rain = 0
KSC1 241143Z 14014KT 23/20 A299 RMK A01 T02290196  RH  082%=      5-min Rain = 0
KSC1 241144Z 13013KT 23/20 A299 RMK A01 T02300197  RH  082%=      5-min Rain = 0
KSC1 241145Z 13011KT 23/20 A2991 RMK A01 T02300197  RH  081%=      5-min Rain = 0
KSC1 241146Z 14011G16KT 23/20 A2991 RMK A01 T02300197  RH  081%=      5-min Rain = 0
KSC1 241147Z 13012G17KT 23/20 A2991 RMK A01 T02300197  RH  082%=      5-min Rain = 0
KSC1 241148Z 14010KT 23/20 A2991 RMK A01 T02300197  RH  082%=      5-min Rain = 0
KSC1 241149Z 14012G17KT 23/20 A2991 RMK A01 T02300197  RH  082%=      5-min Rain = 0
KSC1 241150Z 14012KT 23/20 A2991 RMK A01 T02300197  RH  082%=      5-min Rain = 0
KSC1 241151Z 14009KT 23/20 A2991 RMK A01 T02300197  RH  082%=      5-min Rain = 0
KSC1 241152Z 14012KT 23/20 A2991 RMK A01 T02310197  RH  082%=      5-min Rain = 0
KSC1 241153Z 14010KT 23/20 A2991 RMK A01 T02300197  RH  082%=      5-min Rain = 0
KSC1 241154Z 14010G15KT 23/20 A2992 RMK A01 T02310197  RH  081%=      5-min Rain = 0
KSC1 241155Z 14011KT 23/20 A2992 RMK A01 T02310197  RH  081%=      5-min Rain = 0
KSC1 241156Z 14010KT 23/20 A2992 RMK A01 T02310197  RH  081%=      5-min Rain = 0
KSC1 241157Z 13009KT 23/20 A2992 RMK A01 T02310197  RH  081%=      5-min Rain = 0
KSC1 241158Z 14007KT 23/20 A2992 RMK A01 T02310197  RH  081%=      5-min Rain = 0
KSC1 241159Z 14006KT 23/20 A2992 RMK A01 T02310197  RH  081%=      5-min Rain = 0
KSC1 241200Z 14009KT 23/20 A2992 RMK A01 T02310198  RH  082%=      5-min Rain = 0
KSC1 241201Z 14008KT 23/20 A2992 RMK A01 T02310198  RH  082%=      5-min Rain = 0
KSC1 241202Z 15010KT 23/20 A2992 RMK A01 T02300198  RH  082%=      5-min Rain = 0
KSC1 241203Z 14009KT 23/20 A2993 RMK A01 T02310198  RH  082%=      5-min Rain = 0
KSC1 241204Z 14009KT 23/20 A2993 RMK A01 T02310198  RH  082%=      5-min Rain = 0
KSC1 241205Z 14009KT 23/20 A2993 RMK A01 T02310198  RH  081%=      5-min Rain = 0
KSC1 241206Z 13009KT 23/20 A2993 RMK A01 T02320198  RH  081%=      5-min Rain = 0
KSC1 241207Z 14009KT 23/20 A2993 RMK A01 T02320198  RH  081%=      5-min Rain = 0
KSC1 241208Z 14009KT 23/20 A2993 RMK A01 T02320198  RH  081%=      5-min Rain = 0
KSC1 241209Z 13009KT 23/20 A2993 RMK A01 T02320198  RH  081%=      5-min Rain = 0
KSC1 241210Z 13008KT 23/20 A2993 RMK A01 T02320198  RH  081%=      5-min Rain = 0
KSC1 241211Z 13007KT 23/20 A2993 RMK A01 T02320198  RH  081%=      5-min Rain = 0
KSC1 241212Z 13009KT 23/20 A2993 RMK A01 T02320199  RH  082%=      5-min Rain = 0
KSC1 241213Z 13008KT 23/20 A2993 RMK A01 T02320199  RH  082%=      5-min Rain = 0
KSC1 241214Z 13006KT 23/20 A2993 RMK A01 T02320199  RH  082%=      5-min Rain = 0
KSC1 241215Z 13007KT 23/20 A2993 RMK A01 T02320199  RH  082%=      5-min Rain = 0
KSC1 241216Z 13007KT 23/20 A2993 RMK A01 T02320200  RH  082%=      5-min Rain = 0
KSC1 241217Z 13007KT 23/20 A2993 RMK A01 T02320199  RH  082%=      5-min Rain = 0
KSC1 241218Z 13006KT 23/20 A2993 RMK A01 T02320199  RH  082%=      5-min Rain = 0
KSC1 241219Z 13005KT 23/20 A2993 RMK A01 T02320199  RH  082%=      5-min Rain = 0
KSC1 241220Z 13006KT 23/20 A2993 RMK A01 T02320200  RH  082%=      5-min Rain = 0
KSC1 241221Z 14007KT 23/20 A2994 RMK A01 T02320200  RH  082%=      5-min Rain = 0
KSC1 241222Z 13007KT 23/20 A2994 RMK A01 T02320199  RH  082%=      5-min Rain = 0
KSC1 241223Z 14007KT 23/20 A2994 RMK A01 T02320199  RH  082%=      5-min Rain = 0
KSC1 241224Z 13006KT 23/20 A2994 RMK A01 T02320199  RH  082%=      5-min Rain = 0
KSC1 241225Z 14006KT 23/20 A2994 RMK A01 T02320200  RH  082%=      5-min Rain = 0
KSC1 241226Z 14006KT 23/20 A2994 RMK A01 T02320200  RH  082%=      5-min Rain = 0
KSC1 241227Z 14005KT 23/20 A2994 RMK A01 T02320200  RH  082%=      5-min Rain = 0
KSC1 241228Z 13007KT 23/20 A2994 RMK A01 T02330200  RH  082%=      5-min Rain = 0
KSC1 241229Z 14008KT 23/20 A2994 RMK A01 T02330200  RH  082%=      5-min Rain = 0
KSC1 241230Z 14008KT 23/20 A2994 RMK A01 T02330200  RH  082%=      5-min Rain = 0
KSC1 241231Z 13007KT 23/20 A2994 RMK A01 T02340200  RH  082%=      5-min Rain = 0
KSC1 241232Z 14008KT 23/20 A2994 RMK A01 T02330200  RH  081%=      5-min Rain = 0
KSC1 241233Z 14007KT 23/20 A2994 RMK A01 T02340200  RH  081%=      5-min Rain = 0
KSC1 241234Z 13007KT 23/20 A2994 RMK A01 T02340200  RH  081%=      5-min Rain = 0
KSC1 241235Z 13007G12KT 23/20 A2994 RMK A01 T02340200  RH  081%=      5-min Rain = 0
KSC1 241236Z 15008KT 23/20 A2994 RMK A01 T02340199  RH  081%=      5-min Rain = 0
KSC1 241237Z 14007KT 23/20 A2994 RMK A01 T02340200  RH  081%=      5-min Rain = 0
KSC1 241238Z 15007KT 23/20 A2994 RMK A01 T02340200  RH  081%=      5-min Rain = 0
KSC1 241239Z 15007KT 23/20 A2995 RMK A01 T02340200  RH  081%=      5-min Rain = 0
KSC1 241240Z 15005KT 23/20 A2995 RMK A01 T02340200  RH  081%=      5-min Rain = 0
KSC1 241241Z 15007KT 23/20 A2995 RMK A01 T02340200  RH  081%=      5-min Rain = 0
KSC1 241242Z 15007KT 23/20 A2995 RMK A01 T02340200  RH  081%=      5-min Rain = 0
KSC1 241243Z 15007KT 23/20 A2995 RMK A01 T02340200  RH  081%=      5-min Rain = 0
KSC1 241244Z 16009KT 24/20 A2995 RMK A01 T02350200  RH  081%=      5-min Rain = 0
KSC1 241245Z 15007KT 24/20 A2995 RMK A01 T02350200  RH  081%=      5-min Rain = 0
KSC1 241246Z 15007KT 24/20 A2995 RMK A01 T02350200  RH  081%=      5-min Rain = 0
KSC1 241247Z 15006KT 24/20 A2995 RMK A01 T02350200  RH  081%=      5-min Rain = 0
KSC1 241248Z 16007KT 24/20 A2995 RMK A01 T02350200  RH  081%=      5-min Rain = 0
KSC1 241249Z 16007KT 24/20 A2995 RMK A01 T02350200  RH  081%=      5-min Rain = 0
KSC1 241250Z 16006KT 23/20 A2995 RMK A01 T02340200  RH  081%=      5-min Rain = 0
KSC1 241251Z 16006KT 24/20 A2995 RMK A01 T02350200  RH  081%=      5-min Rain = 0
KSC1 241252Z 16006KT 24/20 A2995 RMK A01 T02350201  RH  081%=      5-min Rain = 0
KSC1 241253Z 15005KT 24/20 A2995 RMK A01 T02350201  RH  081%=      5-min Rain = 0
KSC1 241254Z 16006KT 24/20 A2995 RMK A01 T02350201  RH  081%=      5-min Rain = 0
KSC1 241255Z 15008KT 24/20 A2995 RMK A01 T02350201  RH  081%=      5-min Rain = 0
KSC1 241256Z 15007KT 24/20 A2995 RMK A01 T02350200  RH  081%=      5-min Rain = 0
KSC1 241257Z 15009KT 24/20 A2995 RMK A01 T02350200  RH  081%=      5-min Rain = 0
KSC1 241258Z 16008KT 24/20 A2996 RMK A01 T02350200  RH  081%=      5-min Rain = 0
KSC1 241259Z 16009KT 24/20 A2996 RMK A01 T02350200  RH  080%=      5-min Rain = 0
KSC1 241300Z 15006KT 24/20 A2996 RMK A01 T02360200  RH  080%=      5-min Rain = 0
KSC1 241301Z 17007KT 24/20 A2996 RMK A01 T02360200  RH  080%=      5-min Rain = 0
KSC1 241302Z 16006KT 24/20 A2996 RMK A01 T02360201  RH  081%=      5-min Rain = 0
KSC1 241303Z 16008KT 24/20 A2996 RMK A01 T02360201  RH  081%=      5-min Rain = 0
KSC1 241304Z 15006KT 24/20 A2996 RMK A01 T02360201  RH  081%=      5-min Rain = 0
KSC1 241305Z 16008KT 24/20 A2996 RMK A01 T02360202  RH  081%=      5-min Rain = 0
KSC1 241306Z 16009KT 24/20 A2996 RMK A01 T02360201  RH  081%=      5-min Rain = 0
KSC1 241307Z 15008KT 24/20 A2996 RMK A01 T02360200  RH  080%=      5-min Rain = 0
KSC1 241308Z 15009KT 24/20 A2996 RMK A01 T02370200  RH  080%=      5-min Rain = 0
KSC1 241309Z 15008KT 24/20 A2996 RMK A01 T02370200  RH  080%=      5-min Rain = 0
KSC1 241310Z 16006KT 24/20 A2996 RMK A01 T02380201  RH  080%=      5-min Rain = 0
KSC1 241311Z 15009KT 24/20 A2996 RMK A01 T02380201  RH  080%=      5-min Rain = 0
KSC1 241312Z 15007KT 24/20 A2996 RMK A01 T02380200  RH  080%=      5-min Rain = 0
KSC1 241313Z 14006KT 24/20 A2996 RMK A01 T02380201  RH  080%=      5-min Rain = 0
KSC1 241314Z 15007KT 24/20 A2996 RMK A01 T02380201  RH  080%=      5-min Rain = 0
KSC1 241315Z 15009KT 24/20 A2996 RMK A01 T02380201  RH  080%=      5-min Rain = 0
KSC1 241316Z 15007KT 24/20 A2996 RMK A01 T02380201  RH  080%=      5-min Rain = 0
KSC1 241317Z 15008KT 24/20 A2996 RMK A01 T02380201  RH  080%=      5-min Rain = 0
KSC1 241318Z 15009KT 24/20 A2996 RMK A01 T02380200  RH  079%=      5-min Rain = 0
KSC1 241319Z 15007KT 24/20 A2996 RMK A01 T02380201  RH  079%=      5-min Rain = 0
KSC1 241320Z 15008KT 24/20 A2996 RMK A01 T02380201  RH  079%=      5-min Rain = 0
KSC1 241321Z 15008KT 24/20 A2996 RMK A01 T02380201  RH  079%=      5-min Rain = 0
KSC1 241322Z 15008KT 24/20 A2996 RMK A01 T02380200  RH  079%=      5-min Rain = 0
KSC1 241323Z 15007KT 24/20 A2996 RMK A01 T02380201  RH  080%=      5-min Rain = 0
KSC1 241324Z 15006KT 24/20 A2996 RMK A01 T02380201  RH  080%=      5-min Rain = 0
KSC1 241325Z 15008KT 24/20 A2997 RMK A01 T02380201  RH  080%=      5-min Rain = 0
KSC1 241326Z 15006KT 24/20 A2997 RMK A01 T02380201  RH  080%=      5-min Rain = 0
KSC1 241327Z 16007KT 24/20 A2997 RMK A01 T02380201  RH  080%=      5-min Rain = 0
KSC1 241328Z 15007KT 24/20 A2997 RMK A01 T02380201  RH  080%=      5-min Rain = 0
KSC1 241329Z 15007KT 24/20 A2997 RMK A01 T02380201  RH  080%=      5-min Rain = 0
KSC1 241330Z 15007KT 24/20 A2997 RMK A01 T02380201  RH  080%=      5-min Rain = 0
KSC1 241331Z 15008KT 24/20 A2997 RMK A01 T02380201  RH  080%=      5-min Rain = 0
KSC1 241332Z 15008KT 24/20 A2997 RMK A01 T02380202  RH  080%=      5-min Rain = 0
KSC1 241333Z 15008KT 24/20 A2997 RMK A01 T02380201  RH  080%=      5-min Rain = 0
KSC1 241334Z 16007KT 24/20 A2997 RMK A01 T02380201  RH  080%=      5-min Rain = 0
KSC1 241335Z 15008KT 24/20 A2997 RMK A01 T02380201  RH  080%=      5-min Rain = 0
KSC1 241336Z 15007KT 24/20 A2997 RMK A01 T02380201  RH  080%=      5-min Rain = 0
KSC1 241337Z 14007KT 24/20 A2997 RMK A01 T02380201  RH  080%=      5-min Rain = 0
KSC1 241338Z 14005KT 24/20 A2997 RMK A01 T02380201  RH  080%=      5-min Rain = 0
KSC1 241339Z 15005KT 24/20 A2997 RMK A01 T02380202  RH  080%=      5-min Rain = 0
KSC1 241340Z 14005KT 24/20 A2997 RMK A01 T02380202  RH  080%=      5-min Rain = 0
KSC1 241341Z 15008KT 24/20 A2997 RMK A01 T02370202  RH  080%=      5-min Rain = 0
KSC1 241342Z 14007KT 24/20 A2997 RMK A01 T02370201  RH  080%=      5-min Rain = 0
KSC1 241343Z 14005KT 24/20 A2997 RMK A01 T02370202  RH  080%=      5-min Rain = 0
KSC1 241344Z 15008KT 24/20 A2997 RMK A01 T02370202  RH  081%=      5-min Rain = 0
KSC1 241345Z 14006KT 24/20 A2997 RMK A01 T02370202  RH  080%=      5-min Rain = 0
KSC1 241346Z 14005KT 24/20 A2997 RMK A01 T02380203  RH  081%=      5-min Rain = 0
KSC1 241347Z 14005KT 24/20 A2997 RMK A01 T02370203  RH  081%=      5-min Rain = 0
KSC1 241348Z 14006KT 24/20 A2997 RMK A01 T02370203  RH  081%=      5-min Rain = 0
KSC1 241349Z 14007KT 24/20 A2997 RMK A01 T02370202  RH  081%=      5-min Rain = 0
KSC1 241350Z 13005KT 24/20 A2997 RMK A01 T02370202  RH  081%=      5-min Rain = 0
KSC1 241351Z 14003KT 24/20 A2997 RMK A01 T02370203  RH  081%=      5-min Rain = 0
KSC1 241352Z 15003KT 24/20 A2997 RMK A01 T02370203  RH  081%=      5-min Rain = 0
KSC1 241353Z 14005KT 24/20 A2997 RMK A01 T02370203  RH  082%=      5-min Rain = 0
KSC1 241354Z 14006KT 24/20 A2997 RMK A01 T02370203  RH  081%=      5-min Rain = 0
KSC1 241355Z 14005KT 24/20 A2997 RMK A01 T02370203  RH  081%=      5-min Rain = 0
KSC1 241356Z 14005KT 24/20 A2997 RMK A01 T02370203  RH  081%=      5-min Rain = 0
KSC1 241357Z 14008KT 24/20 A2997 RMK A01 T02370203  RH  081%=      5-min Rain = 0
KSC1 241358Z 14007KT 24/20 A2998 RMK A01 T02370203  RH  081%=      5-min Rain = 0
KSC1 241359Z 15006KT 24/20 A2998 RMK A01 T02370203  RH  081%=      5-min Rain = 0
KSC1 241400Z 15006KT 24/20 A2998 RMK A01 T02370202  RH  081%=      5-min Rain = 0
KSC1 241401Z 15007KT 24/20 A2998 RMK A01 T02370203  RH  081%=      5-min Rain = 0
KSC1 241402Z 15006KT 24/20 A2998 RMK A01 T02370203  RH  081%=      5-min Rain = 0
KSC1 241403Z 15006KT 24/20 A2998 RMK A01 T02370203  RH  081%=      5-min Rain = 0
KSC1 241404Z 15005KT 24/20 A2998 RMK A01 T02370203  RH  081%=      5-min Rain = 0
KSC1 241405Z 15004KT 24/20 A2998 RMK A01 T02370204  RH  082%=      5-min Rain = 0
KSC1 241406Z 15005KT 24/20 A2998 RMK A01 T02360204  RH  082%=      5-min Rain = 0
KSC1 241407Z 15006KT 24/20 A2998 RMK A01 T02360204  RH  082%=      5-min Rain = 0
KSC1 241408Z 15006KT 24/20 A2998 RMK A01 T02360204  RH  082%=      5-min Rain = 0
KSC1 241409Z 15007KT 24/20 A2998 RMK A01 T02360204  RH  082%=      5-min Rain = 0
KSC1 241410Z 16007KT 24/20 A2998 RMK A01 T02360204  RH  082%=      5-min Rain = 0
KSC1 241411Z 16007KT 24/20 A2998 RMK A01 T02360204  RH  082%=      5-min Rain = 0
KSC1 241412Z 18007KT 24/21 A2998 RMK A01 T02360205  RH  083%=      5-min Rain = 0
KSC1 241413Z 16006KT 24/21 A2998 RMK A01 T02350205  RH  083%=      5-min Rain = 0
KSC1 241414Z 16005KT 24/21 A2998 RMK A01 T02350206  RH  084%=      5-min Rain = 0
KSC1 241415Z 16005KT 23/21 A2998 RMK A01 T02340207  RH  084%=      5-min Rain = 0
KSC1 241416Z 15004KT 23/21 A2998 RMK A01 T02340207  RH  085%=      5-min Rain = 0
KSC1 241417Z 15004KT 23/21 A2998 RMK A01 T02330209  RH  086%=      5-min Rain = 0
KSC1 241418Z 15006KT 23/21 A2998 RMK A01 T02330209  RH  087%=      5-min Rain = 0
KSC1 241419Z 15006KT 23/21 A2998 RMK A01 T02320209  RH  087%=      5-min Rain = 0
KSC1 241420Z 16005KT 23/21 A2998 RMK A01 T02320210  RH  087%=      5-min Rain = 0
KSC1 241421Z 15006KT 23/21 A2998 RMK A01 T02320211  RH  088%=      5-min Rain = 0
KSC1 241422Z 14005KT 23/21 A2998 RMK A01 T02310212  RH  089%=      5-min Rain = 0
KSC1 241423Z 15005KT 23/21 A2998 RMK A01 T02320213  RH  089%=      5-min Rain = 0
KSC1 241424Z 14005KT 23/21 A2998 RMK A01 T02320213  RH  090%=      5-min Rain = 0
KSC1 241425Z 14006KT 23/21 A2998 RMK A01 T02310213  RH  089%=      5-min Rain = 0
KSC1 241426Z 15006KT 23/21 A2998 RMK A01 T02310213  RH  090%=      5-min Rain = 0
KSC1 241427Z 15005KT 23/21 A2998 RMK A01 T02310212  RH  089%=      5-min Rain = 0
KSC1 241428Z 14004KT 23/21 A2998 RMK A01 T02310213  RH  090%=      5-min Rain = 0
KSC1 241429Z 15005KT 23/21 A2998 RMK A01 T02310214  RH  090%=      5-min Rain = 0
KSC1 241430Z 15004KT 23/21 A2998 RMK A01 T02310213  RH  089%=      5-min Rain = 0
KSC1 241431Z 14005KT 23/21 A2998 RMK A01 T02320213  RH  089%=      5-min Rain = 0
KSC1 241432Z 15005KT 23/21 A2998 RMK A01 T02320212  RH  089%=      5-min Rain = 0
KSC1 241433Z 14005KT 23/21 A2998 RMK A01 T02320212  RH  089%=      5-min Rain = 0
KSC1 241434Z 15006KT 23/21 A2998 RMK A01 T02320211  RH  088%=      5-min Rain = 0
KSC1 241435Z 14005KT 23/21 A2998 RMK A01 T02330211  RH  088%=      5-min Rain = 0
KSC1 241436Z 14004KT 23/21 A2998 RMK A01 T02330211  RH  088%=      5-min Rain = 0
KSC1 241437Z 14004KT 23/21 A2998 RMK A01 T02330212  RH  088%=      5-min Rain = 0
KSC1 241438Z 15006KT 23/21 A2998 RMK A01 T02330212  RH  088%=      5-min Rain = 0
KSC1 241439Z 14006KT 23/21 A2998 RMK A01 T02330211  RH  087%=      5-min Rain = 0
KSC1 241440Z 14006KT 23/21 A2998 RMK A01 T02330210  RH  087%=      5-min Rain = 0
KSC1 241441Z 14005KT 23/21 A2998 RMK A01 T02330210  RH  087%=      5-min Rain = 0
KSC1 241442Z 14005KT 23/21 A2998 RMK A01 T02340210  RH  087%=      5-min Rain = 0
KSC1 241443Z 14005KT 23/21 A2998 RMK A01 T02340210  RH  086%=      5-min Rain = 0
KSC1 241444Z 14006KT 23/21 A2998 RMK A01 T02340210  RH  086%=      5-min Rain = 0
KSC1 241445Z 13006KT 24/21 A2998 RMK A01 T02350210  RH  086%=      5-min Rain = 0
KSC1 241446Z 14005KT 24/21 A2998 RMK A01 T02350210  RH  086%=      5-min Rain = 0
KSC1 241447Z 15005KT 24/21 A2998 RMK A01 T02350209  RH  086%=      5-min Rain = 0
KSC1 241448Z 14003KT 24/21 A2998 RMK A01 T02350210  RH  086%=      5-min Rain = 0
KSC1 241449Z 14004KT 24/21 A2998 RMK A01 T02350210  RH  086%=      5-min Rain = 0
KSC1 241450Z 13004KT 24/21 A2998 RMK A01 T02350211  RH  086%=      5-min Rain = 0
KSC1 241451Z 13005KT 24/21 A2998 RMK A01 T02350211  RH  087%=      5-min Rain = 0
KSC1 241452Z 13006KT 24/21 A2998 RMK A01 T02350212  RH  087%=      5-min Rain = 0
KSC1 241453Z 14006KT 24/21 A2998 RMK A01 T02350211  RH  086%=      5-min Rain = 0
KSC1 241454Z 14005KT 24/21 A2998 RMK A01 T02350211  RH  086%=      5-min Rain = 0
KSC1 241455Z 14006KT 24/21 A2998 RMK A01 T02350211  RH  087%=      5-min Rain = 0
KSC1 241456Z 14007KT 24/21 A2998 RMK A01 T02350211  RH  086%=      5-min Rain = 0
KSC1 241457Z 14006KT 24/21 A2998 RMK A01 T02350211  RH  086%=      5-min Rain = 0
KSC1 241458Z 13006KT 24/21 A2998 RMK A01 T02350213  RH  087%=      5-min Rain = 0
KSC1 241459Z 14007KT 23/21 A2998 RMK A01 T02340212  RH  088%=      5-min Rain = 0
KSC1 241500Z 14006KT 23/21 A2998 RMK A01 T02340212  RH  088%=      5-min Rain = 0
KSC1 241501Z 14005KT 23/21 A2998 RMK A01 T02340214  RH  089%=      5-min Rain = 0
KSC1 241502Z 14006KT 23/21 A2998 RMK A01 T02330214  RH  089%=      5-min Rain = 0
KSC1 241503Z 14006KT 23/22 A2998 RMK A01 T02330215  RH  090%=      5-min Rain = 0
KSC1 241504Z 14006KT 23/22 A2998 RMK A01 T02320216  RH  090%=      5-min Rain = 0
KSC1 241505Z 14007KT 23/22 A2998 RMK A01 T02320216  RH  091%=      5-min Rain = 0
KSC1 241506Z 15005KT 23/22 A2998 RMK A01 T02320217  RH  091%=      5-min Rain = 0
KSC1 241507Z 15005KT 23/22 A2998 RMK A01 T02310217  RH  092%=      5-min Rain = 0
KSC1 241508Z 15006KT 23/22 A2998 RMK A01 T02310218  RH  092%=      5-min Rain = 0
KSC1 241509Z 14007KT 23/22 A2998 RMK A01 T02310218  RH  092%=      5-min Rain = 0
KSC1 241510Z 15006KT 23/22 A2998 RMK A01 T02300218  RH  093%=      5-min Rain = 0
KSC1 241511Z 15006KT 23/22 A2998 RMK A01 T02300219  RH  094%=      5-min Rain = 0
KSC1 241512Z 15006KT 23/22 A2998 RMK A01 T02300221  RH  095%=      5-min Rain = 0
KSC1 241513Z 16007KT 23/22 A2998 RMK A01 T02290220  RH  095%=      5-min Rain = 0
KSC1 241514Z 15007KT 23/22 A2998 RMK A01 T02290220  RH  095%=      5-min Rain = 0
KSC1 241515Z 16005KT 23/22 A2998 RMK A01 T02280220  RH  095%=      5-min Rain = 0
KSC1 241516Z 15006KT 23/22 A2998 RMK A01 T02280222  RH  096%=      5-min Rain = 0
KSC1 241517Z 15006KT 23/22 A2998 RMK A01 T02280222  RH  096%=      5-min Rain = 0
KSC1 241518Z 15005KT 23/22 A2998 RMK A01 T02280222  RH  097%=      5-min Rain = 0
KSC1 241519Z 15004KT 23/22 A2998 RMK A01 T02280223  RH  097%=      5-min Rain = 0
KSC1 241520Z 16004KT 23/22 A2998 RMK A01 T02270223  RH  098%=      5-min Rain = 0
KSC1 241521Z 16005KT 23/23 A2998 RMK A01 T02270225  RH  098%=      5-min Rain = 0
KSC1 241522Z 16004KT 23/23 A2998 RMK A01 T02270225  RH  099%=      5-min Rain = 0
KSC1 241523Z 16005KT 23/23 A2998 RMK A01 T02270225  RH  099%=      5-min Rain = 0.01
KSC1 241524Z 16005KT 23/23 A2998 RMK A01 T02260226  RH  099%=      5-min Rain = 0
KSC1 241525Z 15005KT 23/23 A2998 RMK A01 T02260226  RH  100%=      5-min Rain = 0
KSC1 241526Z 15005KT 23/23 A2998 RMK A01 T02260226  RH  100%=      5-min Rain = 0
KSC1 241527Z 14004KT 23/23 A2998 RMK A01 T02260226  RH  100%=      5-min Rain = 0
KSC1 241528Z 15005KT 23/23 A2998 RMK A01 T02260226  RH  100%=      5-min Rain = 0
KSC1 241529Z 14005KT 23/23 A2998 RMK A01 T02260226  RH  100%=      5-min Rain = 0
KSC1 241530Z 15005KT 23/23 A2998 RMK A01 T02260226  RH  100%=      5-min Rain = 0
KSC1 241531Z 15008KT 23/23 A2998 RMK A01 T02260227  RH  100%=      5-min Rain = 0
KSC1 241532Z 15007KT 23/23 A2998 RMK A01 T02260227  RH  100%=      5-min Rain = 0
KSC1 241533Z 15008KT 23/23 A2998 RMK A01 T02270227  RH  100%=      5-min Rain = 0.01
KSC1 241534Z 14007KT 23/23 A2998 RMK A01 T02270227  RH  100%=      5-min Rain = 0
KSC1 241535Z 14007KT 23/23 A2998 RMK A01 T02260227  RH  100%=      5-min Rain = 0
KSC1 241536Z 14008KT 23/23 A2998 RMK A01 T02260227  RH  100%=      5-min Rain = 0
KSC1 241537Z 14006KT 23/23 A2998 RMK A01 T02260226  RH  100%=      5-min Rain = 0
KSC1 241538Z 14007KT 23/23 A2998 RMK A01 T02260227  RH  100%=      5-min Rain = 0
KSC1 241539Z 14007KT 23/23 A2998 RMK A01 T02270227  RH  100%=      5-min Rain = 0
KSC1 241540Z 14008KT 23/23 A2998 RMK A01 T02270227  RH  100%=      5-min Rain = 0
KSC1 241541Z 14009KT 23/23 A2998 RMK A01 T02270228  RH  100%=      5-min Rain = 0
KSC1 241542Z 14008KT 23/23 A2998 RMK A01 T02280228  RH  100%=      5-min Rain = 0
KSC1 241543Z 14008KT 23/23 A2998 RMK A01 T02280227  RH  099%=      5-min Rain = 0
KSC1 241544Z 14008KT 23/23 A2998 RMK A01 T02280227  RH  099%=      5-min Rain = 0
KSC1 241545Z 14007KT 23/23 A2998 RMK A01 T02290228  RH  099%=      5-min Rain = 0
KSC1 241546Z 14008KT 23/23 A2998 RMK A01 T02290228  RH  099%=      5-min Rain = 0
KSC1 241547Z 13009KT 23/23 A2998 RMK A01 T02300227  RH  098%=      5-min Rain = 0
KSC1 241548Z 14009KT 23/23 A2998 RMK A01 T02300227  RH  098%=      5-min Rain = 0
KSC1 241549Z 14009KT 23/23 A2998 RMK A01 T02300227  RH  098%=      5-min Rain = 0
KSC1 241550Z 14009KT 23/23 A2998 RMK A01 T02300227  RH  098%=      5-min Rain = 0
KSC1 241551Z 14010KT 23/23 A2998 RMK A01 T02310227  RH  098%=      5-min Rain = 0
KSC1 241552Z 14009KT 23/23 A2998 RMK A01 T02310227  RH  097%=      5-min Rain = 0
KSC1 241553Z 14009KT 23/23 A2998 RMK A01 T02310227  RH  098%=      5-min Rain = 0
KSC1 241554Z 14009KT 23/23 A2998 RMK A01 T02310228  RH  098%=      5-min Rain = 0
KSC1 241555Z 14009KT 23/23 A2998 RMK A01 T02320228  RH  098%=      5-min Rain = 0
KSC1 241556Z 14008KT 23/23 A2998 RMK A01 T02320228  RH  098%=      5-min Rain = 0
KSC1 241557Z 14007KT 23/23 A2998 RMK A01 T02320230  RH  098%=      5-min Rain = 0
KSC1 241558Z 14009KT 23/23 A2998 RMK A01 T02320229  RH  098%=      5-min Rain = 0
KSC1 241559Z 13009KT 23/23 A2998 RMK A01 T02330230  RH  098%=      5-min Rain = 0
KSC1 241600Z 14007KT 23/23 A2998 RMK A01 T02330230  RH  098%=      5-min Rain = 0
KSC1 241601Z 14008KT 23/23 A2998 RMK A01 T02330231  RH  098%=      5-min Rain = 0
KSC1 241602Z 14009KT 23/23 A2998 RMK A01 T02340230  RH  098%=      5-min Rain = 0
KSC1 241603Z 14009KT 23/23 A2998 RMK A01 T02340229  RH  097%=      5-min Rain = 0
KSC1 241604Z 14010KT 23/23 A2998 RMK A01 T02340227  RH  096%=      5-min Rain = 0
KSC1 241605Z 15008KT 23/23 A2998 RMK A01 T02340228  RH  096%=      5-min Rain = 0
KSC1 241606Z 14007KT 23/23 A2998 RMK A01 T02340230  RH  097%=      5-min Rain = 0
KSC1 241607Z 14010KT 24/23 A2998 RMK A01 T02350231  RH  098%=      5-min Rain = 0
KSC1 241608Z 14010KT 24/23 A2998 RMK A01 T02350229  RH  097%=      5-min Rain = 0
KSC1 241609Z 14010KT 24/23 A2998 RMK A01 T02350229  RH  097%=      5-min Rain = 0
KSC1 241610Z 14008KT 23/23 A2998 RMK A01 T02340229  RH  097%=      5-min Rain = 0
KSC1 241611Z 14009KT 23/23 A2998 RMK A01 T02340229  RH  097%=      5-min Rain = 0
KSC1 241612Z 13009KT 24/23 A2998 RMK A01 T02350229  RH  097%=      5-min Rain = 0
KSC1 241613Z 14010KT 24/23 A2998 RMK A01 T02350228  RH  096%=      5-min Rain = 0
KSC1 241614Z 14009KT 24/23 A2998 RMK A01 T02350227  RH  095%=      5-min Rain = 0
KSC1 241615Z 14008KT 24/23 A2998 RMK A01 T02350228  RH  096%=      5-min Rain = 0
KSC1 241616Z 13009KT 24/23 A2998 RMK A01 T02360229  RH  096%=      5-min Rain = 0
KSC1 241617Z 13010KT 24/23 A2998 RMK A01 T02360228  RH  096%=      5-min Rain = 0
KSC1 241618Z 14006KT 24/23 A2998 RMK A01 T02360228  RH  095%=      5-min Rain = 0
KSC1 241619Z 13007KT 24/23 A2998 RMK A01 T02370230  RH  096%=      5-min Rain = 0
KSC1 241620Z 14010KT 24/23 A2998 RMK A01 T02370229  RH  095%=      5-min Rain = 0
KSC1 241621Z 13007KT 24/23 A2998 RMK A01 T02370227  RH  094%=      5-min Rain = 0
KSC1 241622Z 13008KT 24/23 A2998 RMK A01 T02380229  RH  095%=      5-min Rain = 0
KSC1 241623Z 13006KT 24/23 A2998 RMK A01 T02380229  RH  095%=      5-min Rain = 0
KSC1 241624Z 13008KT 24/23 A2998 RMK A01 T02390231  RH  095%=      5-min Rain = 0
KSC1 241625Z 13008KT 24/23 A2998 RMK A01 T02390227  RH  093%=      5-min Rain = 0
KSC1 241626Z 13007KT 24/23 A2998 RMK A01 T02400228  RH  093%=      5-min Rain = 0
KSC1 241627Z 13007KT 24/23 A2998 RMK A01 T02410231  RH  094%=      5-min Rain = 0
KSC1 241628Z 14008KT 24/23 A2998 RMK A01 T02410232  RH  094%=      5-min Rain = 0
KSC1 241629Z 13007KT 24/23 A2998 RMK A01 T02420230  RH  093%=      5-min Rain = 0
KSC1 241630Z 13007KT 24/23 A2998 RMK A01 T02430229  RH  092%=      5-min Rain = 0
KSC1 241631Z 14007KT 24/23 A2998 RMK A01 T02430233  RH  094%=      5-min Rain = 0
KSC1 241632Z 13007KT 25/23 A2998 RMK A01 T02450231  RH  092%=      5-min Rain = 0
KSC1 241633Z 13007KT 25/23 A2998 RMK A01 T02450230  RH  091%=      5-min Rain = 0
KSC1 241634Z 14008KT 25/23 A2998 RMK A01 T02460229  RH  090%=      5-min Rain = 0
KSC1 241635Z 14008KT 25/23 A2998 RMK A01 T02460225  RH  088%=      5-min Rain = 0
KSC1 241636Z 14008KT 25/23 A2998 RMK A01 T02470226  RH  088%=      5-min Rain = 0
KSC1 241637Z 14011KT 25/22 A2998 RMK A01 T02470224  RH  087%=      5-min Rain = 0
KSC1 241638Z 14009KT 25/22 A2998 RMK A01 T02480221  RH  085%=      5-min Rain = 0
KSC1 241639Z 14010KT 25/22 A2998 RMK A01 T02480224  RH  086%=      5-min Rain = 0
KSC1 241640Z 14010KT 25/22 A2998 RMK A01 T02480223  RH  086%=      5-min Rain = 0
KSC1 241641Z 14012KT 25/22 A2998 RMK A01 T02490223  RH  085%=      5-min Rain = 0
KSC1 241642Z 14010KT 25/22 A2998 RMK A01 T02500222  RH  085%=      5-min Rain = 0
KSC1 241643Z 14011KT 25/22 A2998 RMK A01 T02510223  RH  085%=      5-min Rain = 0
KSC1 241644Z 13012G17KT 25/22 A2998 RMK A01 T02510222  RH  084%=      5-min Rain = 0
KSC1 241645Z 13013KT 25/22 A2998 RMK A01 T02510220  RH  083%=      5-min Rain = 0
KSC1 241646Z 13011KT 25/22 A2998 RMK A01 T02510219  RH  082%=      5-min Rain = 0
KSC1 241647Z 13011KT 25/22 A2997 RMK A01 T02510219  RH  082%=      5-min Rain = 0
KSC1 241648Z 13012KT 25/22 A2997 RMK A01 T02510219  RH  082%=      5-min Rain = 0
KSC1 241649Z 14012KT 25/22 A2997 RMK A01 T02510218  RH  082%=      5-min Rain = 0
KSC1 241650Z 14010KT 25/22 A2997 RMK A01 T02510220  RH  083%=      5-min Rain = 0
KSC1 241651Z 14011KT 25/22 A2997 RMK A01 T02510219  RH  082%=      5-min Rain = 0
KSC1 241652Z 14012KT 25/22 A2997 RMK A01 T02510219  RH  082%=      5-min Rain = 0
KSC1 241653Z 14010KT 25/22 A2997 RMK A01 T02510220  RH  083%=      5-min Rain = 0
KSC1 241654Z 14010KT 25/22 A2997 RMK A01 T02510221  RH  083%=      5-min Rain = 0
KSC1 241655Z 13011KT 25/22 A2997 RMK A01 T02530223  RH  084%=      5-min Rain = 0
KSC1 241656Z 14012KT 25/22 A2997 RMK A01 T02530219  RH  082%=      5-min Rain = 0
KSC1 241657Z 14010KT 25/22 A2997 RMK A01 T02530220  RH  082%=      5-min Rain = 0
KSC1 241658Z 14010KT 25/22 A2997 RMK A01 T02540222  RH  082%=      5-min Rain = 0
KSC1 241659Z 15007G13KT 25/23 A2997 RMK A01 T02540225  RH  084%=      5-min Rain = 0
KSC1 241700Z 15011G16KT 26/22 A2997 RMK A01 T02550223  RH  082%=      5-min Rain = 0
KSC1 241701Z 15011KT 26/22 A2997 RMK A01 T02560224  RH  083%=      5-min Rain = 0
KSC1 241702Z 14011KT 26/22 A2997 RMK A01 T02560223  RH  082%=      5-min Rain = 0
KSC1 241703Z 15012KT 26/22 A2997 RMK A01 T02570220  RH  080%=      5-min Rain = 0
KSC1 241704Z 14012G17KT 26/22 A2997 RMK A01 T02570220  RH  080%=      5-min Rain = 0
KSC1 241705Z 14012KT 26/22 A2997 RMK A01 T02560219  RH  080%=      5-min Rain = 0
KSC1 241706Z 14012KT 26/22 A2997 RMK A01 T02560220  RH  081%=      5-min Rain = 0
KSC1 241707Z 14015KT 26/22 A2997 RMK A01 T02550219  RH  080%=      5-min Rain = 0
KSC1 241708Z 14015KT 26/22 A2997 RMK A01 T02550216  RH  079%=      5-min Rain = 0
KSC1 241709Z 14012KT 26/22 A2997 RMK A01 T02550216  RH  079%=      5-min Rain = 0
KSC1 241710Z 13015KT 25/22 A2997 RMK A01 T02540215  RH  079%=      5-min Rain = 0
KSC1 241711Z 13015KT 25/22 A2997 RMK A01 T02540215  RH  079%=      5-min Rain = 0
KSC1 241712Z 13013KT 25/22 A2997 RMK A01 T02540216  RH  080%=      5-min Rain = 0
KSC1 241713Z 13015G20KT 25/22 A2997 RMK A01 T02540216  RH  080%=      5-min Rain = 0
KSC1 241714Z 14014KT 25/22 A2997 RMK A01 T02530215  RH  079%=      5-min Rain = 0
KSC1 241715Z 14013G18KT 25/22 A2997 RMK A01 T02530216  RH  080%=      5-min Rain = 0
KSC1 241716Z 14014KT 25/22 A2997 RMK A01 T02530216  RH  080%=      5-min Rain = 0
KSC1 241717Z 14014KT 25/22 A2997 RMK A01 T02540217  RH  080%=      5-min Rain = 0
KSC1 241718Z 14013KT 25/22 A2997 RMK A01 T02540218  RH  080%=      5-min Rain = 0
KSC1 241719Z 14011KT 26/22 A2997 RMK A01 T02550218  RH  080%=      5-min Rain = 0
KSC1 241720Z 14014G21KT 26/22 A2997 RMK A01 T02550220  RH  081%=      5-min Rain = 0
KSC1 241721Z 14016KT 26/22 A2997 RMK A01 T02560217  RH  079%=      5-min Rain = 0
KSC1 241722Z 14017G22KT 26/22 A2997 RMK A01 T02560215  RH  078%=      5-min Rain = 0
KSC1 241723Z 15019KT 26/21 A2997 RMK A01 T02550212  RH  077%=      5-min Rain = 0
KSC1 241724Z 15015KT 25/21 A2997 RMK A01 T02540213  RH  078%=      5-min Rain = 0
KSC1 241725Z 15013KT 25/22 A2997 RMK A01 T02540216  RH  079%=      5-min Rain = 0
KSC1 241726Z 14015KT 26/22 A2997 RMK A01 T02550216  RH  079%=      5-min Rain = 0
KSC1 241727Z 14015G21KT 26/22 A2997 RMK A01 T02550215  RH  078%=      5-min Rain = 0
KSC1 241728Z 14017KT 26/21 A2997 RMK A01 T02550214  RH  078%=      5-min Rain = 0
KSC1 241729Z 14019KT 26/21 A2997 RMK A01 T02550213  RH  078%=      5-min Rain = 0
KSC1 241730Z 14019G25KT 25/21 A2997 RMK A01 T02540212  RH  077%=      5-min Rain = 0
KSC1 241731Z 14016G23KT 25/21 A2997 RMK A01 T02540213  RH  078%=      5-min Rain = 0
KSC1 241732Z 15018G23KT 25/21 A2997 RMK A01 T02540212  RH  078%=      5-min Rain = 0
KSC1 241733Z 14015G20KT 25/21 A2997 RMK A01 T02540212  RH  078%=      5-min Rain = 0
KSC1 241734Z 14016KT 25/21 A2997 RMK A01 T02540212  RH  078%=      5-min Rain = 0
KSC1 241735Z 14016KT 25/21 A2997 RMK A01 T02540212  RH  078%=      5-min Rain = 0
KSC1 241736Z 15019KT 26/21 A2997 RMK A01 T02550212  RH  077%=      5-min Rain = 0
KSC1 241737Z 15019KT 26/21 A2997 RMK A01 T02550210  RH  076%=      5-min Rain = 0
KSC1 241738Z 15019KT 26/21 A2997 RMK A01 T02550209  RH  076%=      5-min Rain = 0
KSC1 241739Z 15017G23KT 26/21 A2997 RMK A01 T02550211  RH  077%=      5-min Rain = 0
KSC1 241740Z 14016KT 26/21 A2997 RMK A01 T02550212  RH  077%=      5-min Rain = 0
KSC1 241741Z 14017KT 26/21 A2997 RMK A01 T02560212  RH  076%=      5-min Rain = 0
KSC1 241742Z 15020KT 26/21 A2997 RMK A01 T02570211  RH  076%=      5-min Rain = 0
KSC1 241743Z 15019KT 26/21 A2997 RMK A01 T02580212  RH  076%=      5-min Rain = 0
KSC1 241744Z 15018KT 26/21 A2997 RMK A01 T02590211  RH  075%=      5-min Rain = 0
KSC1 241745Z 14016KT 26/21 A2997 RMK A01 T02590212  RH  075%=      5-min Rain = 0
KSC1 241746Z 14016G23KT 26/21 A2997 RMK A01 T02580211  RH  075%=      5-min Rain = 0
KSC1 241747Z 14019KT 26/21 A2997 RMK A01 T02580211  RH  075%=      5-min Rain = 0
KSC1 241748Z 14017KT 26/21 A2997 RMK A01 T02580210  RH  075%=      5-min Rain = 0
KSC1 241749Z 15015KT 26/21 A2997 RMK A01 T02580213  RH  076%=      5-min Rain = 0
KSC1 241750Z 15012KT 26/21 A2997 RMK A01 T02580214  RH  077%=      5-min Rain = 0
KSC1 241751Z 15016KT 26/21 A2997 RMK A01 T02600213  RH  075%=      5-min Rain = 0
KSC1 241752Z 14013KT 26/22 A2997 RMK A01 T02620215  RH  075%=      5-min Rain = 0
KSC1 241753Z 15016G22KT 26/22 A2997 RMK A01 T02640215  RH  075%=      5-min Rain = 0
KSC1 241754Z 15018G23KT 27/21 A2997 RMK A01 T02660213  RH  073%=      5-min Rain = 0
KSC1 241755Z 14016G22KT 27/21 A2997 RMK A01 T02650213  RH  073%=      5-min Rain = 0
KSC1 241756Z 14014KT 27/21 A2997 RMK A01 T02650214  RH  073%=      5-min Rain = 0
KSC1 241757Z 15018G23KT 27/21 A2997 RMK A01 T02660214  RH  073%=      5-min Rain = 0
KSC1 241758Z 15017KT 27/21 A2997 RMK A01 T02670213  RH  072%=      5-min Rain = 0
KSC1 241759Z 15016KT 27/21 A2997 RMK A01 T02660212  RH  072%=      5-min Rain = 0
KSC1 241800Z 14018G24KT 27/21 A2997 RMK A01 T02650211  RH  072%=      5-min Rain = 0
KSC1 241801Z 14015G20KT 26/21 A2997 RMK A01 T02640210  RH  072%=      5-min Rain = 0
KSC1 241802Z 15012KT 26/21 A2997 RMK A01 T02640212  RH  073%=      5-min Rain = 0
KSC1 241803Z 15013G18KT 26/21 A2997 RMK A01 T02640213  RH  073%=      5-min Rain = 0
KSC1 241804Z 16014G19KT 26/21 A2997 RMK A01 T02640212  RH  073%=      5-min Rain = 0
KSC1 241805Z 16016KT 27/21 A2997 RMK A01 T02650211  RH  073%=      5-min Rain = 0
KSC1 241806Z 15017G22KT 26/21 A2997 RMK A01 T02630209  RH  072%=      5-min Rain = 0
KSC1 241807Z 15017KT 26/21 A2997 RMK A01 T02620209  RH  073%=      5-min Rain = 0
KSC1 241808Z 15013KT 26/21 A2997 RMK A01 T02610210  RH  073%=      5-min Rain = 0
KSC1 241809Z 15016G21KT 26/21 A2997 RMK A01 T02610211  RH  074%=      5-min Rain = 0
KSC1 241810Z 15016KT 26/21 A2997 RMK A01 T02610209  RH  073%=      5-min Rain = 0
KSC1 241811Z 16017KT 26/21 A2997 RMK A01 T02610208  RH  073%=      5-min Rain = 0
KSC1 241812Z 16015G21KT 26/21 A2997 RMK A01 T02600208  RH  073%=      5-min Rain = 0
KSC1 241813Z 16014G23KT 26/21 A2997 RMK A01 T02600207  RH  073%=      5-min Rain = 0
KSC1 241814Z 16016KT 26/21 A2997 RMK A01 T02590207  RH  073%=      5-min Rain = 0
KSC1 241815Z 16015KT 26/21 A2997 RMK A01 T02590208  RH  073%=      5-min Rain = 0
KSC1 241816Z 16016KT 26/21 A2997 RMK A01 T02590208  RH  074%=      5-min Rain = 0
KSC1 241817Z 15015KT 26/21 A2997 RMK A01 T02590208  RH  073%=      5-min Rain = 0
KSC1 241818Z 16015KT 26/21 A2997 RMK A01 T02590208  RH  074%=      5-min Rain = 0
KSC1 241819Z 16016KT 26/21 A2997 RMK A01 T02590208  RH  073%=      5-min Rain = 0
KSC1 241820Z 15016KT 26/21 A2997 RMK A01 T02590208  RH  073%=      5-min Rain = 0
KSC1 241821Z 15016G22KT 26/21 A2997 RMK A01 T02590207  RH  073%=      5-min Rain = 0
KSC1 241822Z 15016G21KT 26/21 A2997 RMK A01 T02600207  RH  073%=      5-min Rain = 0
KSC1 241823Z 15015G21KT 26/21 A2997 RMK A01 T02590206  RH  072%=      5-min Rain = 0
KSC1 241824Z 15016KT 26/21 A2997 RMK A01 T02600206  RH  072%=      5-min Rain = 0
KSC1 241825Z 15015KT 26/21 A2997 RMK A01 T02600207  RH  073%=      5-min Rain = 0
KSC1 241826Z 15013G19KT 26/21 A2997 RMK A01 T02600207  RH  073%=      5-min Rain = 0
KSC1 241827Z 15015KT 26/21 A2997 RMK A01 T02590207  RH  073%=      5-min Rain = 0
KSC1 241828Z 15012KT 26/21 A2997 RMK A01 T02600208  RH  073%=      5-min Rain = 0
KSC1 241829Z 15015KT 26/21 A2997 RMK A01 T02590207  RH  073%=      5-min Rain = 0
KSC1 241830Z 16015KT 26/21 A2997 RMK A01 T02600206  RH  072%=      5-min Rain = 0
KSC1 241831Z 15016KT 26/21 A2997 RMK A01 T02590207  RH  073%=      5-min Rain = 0
KSC1 241832Z 15014G21KT 26/21 A2997 RMK A01 T02580206  RH  073%=      5-min Rain = 0
KSC1 241833Z 15016KT 26/21 A2997 RMK A01 T02590206  RH  073%=      5-min Rain = 0
KSC1 241834Z 15013G18KT 26/21 A2997 RMK A01 T02580207  RH  073%=      5-min Rain = 0
KSC1 241835Z 15014KT 26/21 A2997 RMK A01 T02590208  RH  073%=      5-min Rain = 0
KSC1 241836Z 14014G19KT 26/21 A2997 RMK A01 T02590207  RH  073%=      5-min Rain = 0
KSC1 241837Z 15014KT 26/21 A2997 RMK A01 T02590208  RH  074%=      5-min Rain = 0
KSC1 241838Z 14012KT 26/21 A2997 RMK A01 T02580208  RH  074%=      5-min Rain = 0
KSC1 241839Z 15011KT 26/21 A2997 RMK A01 T02580208  RH  074%=      5-min Rain = 0
KSC1 241840Z 15012G17KT 26/21 A2997 RMK A01 T02590210  RH  074%=      5-min Rain = 0
KSC1 241841Z 15014KT 26/21 A2997 RMK A01 T02590208  RH  074%=      5-min Rain = 0
KSC1 241842Z 15011KT 26/21 A2997 RMK A01 T02590209  RH  074%=      5-min Rain = 0
KSC1 241843Z 14016KT 26/21 A2997 RMK A01 T02590208  RH  073%=      5-min Rain = 0
KSC1 241844Z 14015G22KT 26/21 A2997 RMK A01 T02590206  RH  073%=      5-min Rain = 0
KSC1 241845Z 15014G19KT 26/21 A2997 RMK A01 T02590208  RH  073%=      5-min Rain = 0
KSC1 241846Z 15016KT 26/21 A2997 RMK A01 T02590206  RH  073%=      5-min Rain = 0
KSC1 241847Z 15015KT 26/21 A2997 RMK A01 T02580206  RH  073%=      5-min Rain = 0
KSC1 241848Z 15015KT 26/21 A2997 RMK A01 T02580206  RH  073%=      5-min Rain = 0
KSC1 241849Z 15015KT 26/21 A2997 RMK A01 T02580206  RH  073%=      5-min Rain = 0
KSC1 241850Z 14014G19KT 26/21 A2997 RMK A01 T02580207  RH  073%=      5-min Rain = 0
KSC1 241851Z 14014G19KT 26/21 A2997 RMK A01 T02580207  RH  073%=      5-min Rain = 0
KSC1 241852Z 14011G16KT 26/21 A2997 RMK A01 T02580207  RH  074%=      5-min Rain = 0
KSC1 241853Z 15015KT 26/21 A2997 RMK A01 T02580207  RH  073%=      5-min Rain = 0
KSC1 241854Z 14017KT 26/21 A2997 RMK A01 T02590207  RH  073%=      5-min Rain = 0
KSC1 241855Z 15015KT 26/21 A2997 RMK A01 T02590207  RH  073%=      5-min Rain = 0
KSC1 241856Z 14014KT 26/21 A2996 RMK A01 T02590208  RH  073%=      5-min Rain = 0
KSC1 241857Z 14014KT 26/21 A2996 RMK A01 T02590208  RH  073%=      5-min Rain = 0
KSC1 241858Z 13010KT 26/21 A2996 RMK A01 T02600211  RH  074%=      5-min Rain = 0
KSC1 241859Z 13015G20KT 26/21 A2996 RMK A01 T02620212  RH  074%=      5-min Rain = 0
KSC1 241900Z 13016KT 26/21 A2996 RMK A01 T02630210  RH  073%=      5-min Rain = 0
KSC1 241901Z 13016KT 26/21 A2996 RMK A01 T02640209  RH  072%=      5-min Rain = 0
KSC1 241902Z 14015KT 26/21 A2996 RMK A01 T02640209  RH  072%=      5-min Rain = 0
KSC1 241903Z 14012KT 26/21 A2996 RMK A01 T02640210  RH  072%=      5-min Rain = 0
KSC1 241904Z 14012KT 27/21 A2996 RMK A01 T02660213  RH  073%=      5-min Rain = 0
KSC1 241905Z 15015KT 27/21 A2996 RMK A01 T02680211  RH  071%=      5-min Rain = 0
KSC1 241906Z 14013G19KT 27/21 A2996 RMK A01 T02690212  RH  071%=      5-min Rain = 0
KSC1 241907Z 14016KT 27/21 A2996 RMK A01 T02710211  RH  070%=      5-min Rain = 0
KSC1 241908Z 13013G19KT 27/21 A2996 RMK A01 T02720213  RH  071%=      5-min Rain = 0
KSC1 241909Z 13016KT 27/21 A2996 RMK A01 T02730211  RH  069%=      5-min Rain = 0
KSC1 241910Z 13015KT 27/21 A2996 RMK A01 T02730211  RH  069%=      5-min Rain = 0
KSC1 241911Z 13015G20KT 27/21 A2996 RMK A01 T02720213  RH  070%=      5-min Rain = 0
KSC1 241912Z 13015KT 27/21 A2996 RMK A01 T02730211  RH  069%=      5-min Rain = 0
KSC1 241913Z 13015KT 27/21 A2996 RMK A01 T02730211  RH  069%=      5-min Rain = 0
KSC1 241914Z 14015KT 27/21 A2996 RMK A01 T02730211  RH  069%=      5-min Rain = 0
KSC1 241915Z 15014G19KT 27/21 A2996 RMK A01 T02720210  RH  069%=      5-min Rain = 0
KSC1 241916Z 13016KT 27/21 A2996 RMK A01 T02730210  RH  068%=      5-min Rain = 0
KSC1 241917Z 13016KT 27/21 A2996 RMK A01 T02710209  RH  069%=      5-min Rain = 0
KSC1 241918Z 15012KT 27/21 A2996 RMK A01 T02710210  RH  070%=      5-min Rain = 0
KSC1 241919Z 15014G19KT 27/21 A2996 RMK A01 T02720210  RH  069%=      5-min Rain = 0
KSC1 241920Z 16012G18KT 27/21 A2996 RMK A01 T02720210  RH  069%=      5-min Rain = 0
KSC1 241921Z 15012KT 27/21 A2996 RMK A01 T02720211  RH  069%=      5-min Rain = 0
KSC1 241922Z 16013KT 27/21 A2996 RMK A01 T02720210  RH  069%=      5-min Rain = 0
KSC1 241923Z 14011KT 27/21 A2996 RMK A01 T02700210  RH  069%=      5-min Rain = 0
KSC1 241924Z 15012KT 27/21 A2996 RMK A01 T02700210  RH  070%=      5-min Rain = 0
KSC1 241925Z 14013KT 27/21 A2996 RMK A01 T02690210  RH  070%=      5-min Rain = 0
KSC1 241926Z 13014KT 27/21 A2996 RMK A01 T02680209  RH  070%=      5-min Rain = 0
KSC1 241927Z 14011KT 27/21 A2996 RMK A01 T02660209  RH  071%=      5-min Rain = 0
KSC1 241928Z 14014KT 27/21 A2996 RMK A01 T02660208  RH  071%=      5-min Rain = 0
KSC1 241929Z 15014G20KT 27/21 A2996 RMK A01 T02650205  RH  070%=      5-min Rain = 0
KSC1 241930Z 13010G15KT 26/21 A2996 RMK A01 T02640207  RH  071%=      5-min Rain = 0
KSC1 241931Z 15011KT 27/21 A2996 RMK A01 T02650211  RH  072%=      5-min Rain = 0
KSC1 241932Z 15012KT 27/21 A2996 RMK A01 T02660208  RH  071%=      5-min Rain = 0
KSC1 241933Z 15013G18KT 27/21 A2996 RMK A01 T02660208  RH  070%=      5-min Rain = 0
KSC1 241934Z 15014KT 27/21 A2996 RMK A01 T02660206  RH  070%=      5-min Rain = 0
KSC1 241935Z 14008KT 27/21 A2996 RMK A01 T02650208  RH  071%=      5-min Rain = 0
KSC1 241936Z 13011KT 27/21 A2996 RMK A01 T02650209  RH  072%=      5-min Rain = 0
KSC1 241937Z 13013KT 26/21 A2996 RMK A01 T02640209  RH  071%=      5-min Rain = 0
KSC1 241938Z 13015KT 26/21 A2996 RMK A01 T02640207  RH  070%=      5-min Rain = 0
KSC1 241939Z 14014KT 26/21 A2996 RMK A01 T02640207  RH  071%=      5-min Rain = 0
KSC1 241940Z 14012KT 26/21 A2996 RMK A01 T02630208  RH  071%=      5-min Rain = 0
KSC1 241941Z 14011KT 26/21 A2996 RMK A01 T02640209  RH  072%=      5-min Rain = 0
KSC1 241942Z 14014KT 27/21 A2996 RMK A01 T02650208  RH  071%=      5-min Rain = 0
KSC1 241943Z 14012KT 27/21 A2996 RMK A01 T02650208  RH  071%=      5-min Rain = 0
KSC1 241944Z 15012KT 27/21 A2996 RMK A01 T02660209  RH  071%=      5-min Rain = 0
KSC1 241945Z 16012G17KT 27/21 A2996 RMK A01 T02670209  RH  070%=      5-min Rain = 0
KSC1 241946Z 15011KT 27/21 A2996 RMK A01 T02670210  RH  071%=      5-min Rain = 0
KSC1 241947Z 14012KT 27/21 A2996 RMK A01 T02680210  RH  070%=      5-min Rain = 0
KSC1 241948Z 14012KT 27/21 A2996 RMK A01 T02680209  RH  070%=      5-min Rain = 0
KSC1 241949Z 14014KT 27/21 A2996 RMK A01 T02680209  RH  070%=      5-min Rain = 0
KSC1 241950Z 14016KT 27/21 A2996 RMK A01 T02670208  RH  070%=      5-min Rain = 0
KSC1 241951Z 13015KT 27/21 A2996 RMK A01 T02670208  RH  070%=      5-min Rain = 0
KSC1 241952Z 14013KT 27/21 A2995 RMK A01 T02660207  RH  070%=      5-min Rain = 0
KSC1 241953Z 14014G20KT 27/21 A2995 RMK A01 T02660208  RH  070%=      5-min Rain = 0
KSC1 241954Z 14015G21KT 27/21 A2995 RMK A01 T02670207  RH  070%=      5-min Rain = 0
KSC1 241955Z 14014KT 27/21 A2995 RMK A01 T02670207  RH  070%=      5-min Rain = 0
KSC1 241956Z 14014G19KT 27/21 A2995 RMK A01 T02670209  RH  070%=      5-min Rain = 0
KSC1 241957Z 14017KT 27/21 A2995 RMK A01 T02680207  RH  069%=      5-min Rain = 0
KSC1 241958Z 14014KT 27/21 A2995 RMK A01 T02670207  RH  069%=      5-min Rain = 0
KSC1 241959Z 14013KT 27/21 A2995 RMK A01 T02660208  RH  070%=      5-min Rain = 0
KSC1 242000Z 14014KT 27/21 A2995 RMK A01 T02660208  RH  071%=      5-min Rain = 0
KSC1 242001Z 14018KT 27/21 A2995 RMK A01 T02660207  RH  070%=      5-min Rain = 0
KSC1 242002Z 14017KT 27/21 A2995 RMK A01 T02660206  RH  070%=      5-min Rain = 0
KSC1 242003Z 14017G22KT 27/21 A2995 RMK A01 T02660205  RH  069%=      5-min Rain = 0
KSC1 242004Z 14015KT 26/21 A2995 RMK A01 T02640205  RH  070%=      5-min Rain = 0
KSC1 242005Z 14013G18KT 26/21 A2995 RMK A01 T02640207  RH  071%=      5-min Rain = 0
KSC1 242006Z 13016G21KT 26/21 A2995 RMK A01 T02640207  RH  071%=      5-min Rain = 0
KSC1 242007Z 13017KT 26/21 A2995 RMK A01 T02640205  RH  070%=      5-min Rain = 0
KSC1 242008Z 13013KT 26/21 A2995 RMK A01 T02630206  RH  071%=      5-min Rain = 0
KSC1 242009Z 13012KT 26/21 A2995 RMK A01 T02630206  RH  071%=      5-min Rain = 0
KSC1 242010Z 13014G19KT 26/21 A2995 RMK A01 T02620205  RH  071%=      5-min Rain = 0
KSC1 242011Z 14014G21KT 26/21 A2995 RMK A01 T02630205  RH  071%=      5-min Rain = 0
KSC1 242012Z 13015KT 26/20 A2995 RMK A01 T02630204  RH  070%=      5-min Rain = 0
KSC1 242013Z 13016KT 26/20 A2995 RMK A01 T02620204  RH  070%=      5-min Rain = 0
KSC1 242014Z 14013KT 26/20 A2995 RMK A01 T02620204  RH  070%=      5-min Rain = 0
KSC1 242015Z 14015G20KT 26/20 A2995 RMK A01 T02610204  RH  071%=      5-min Rain = 0
KSC1 242016Z 15015KT 26/20 A2995 RMK A01 T02610203  RH  070%=      5-min Rain = 0
KSC1 242017Z 13015KT 26/21 A2995 RMK A01 T02610205  RH  071%=      5-min Rain = 0
KSC1 242018Z 14015G20KT 26/20 A2995 RMK A01 T02610204  RH  071%=      5-min Rain = 0
KSC1 242019Z 14012G17KT 26/20 A2995 RMK A01 T02610204  RH  071%=      5-min Rain = 0
KSC1 242020Z 14014KT 26/20 A2995 RMK A01 T02600204  RH  071%=      5-min Rain = 0
KSC1 242021Z 14014G20KT 26/20 A2995 RMK A01 T02600204  RH  071%=      5-min Rain = 0
KSC1 242022Z 14015KT 26/20 A2995 RMK A01 T02600204  RH  071%=      5-min Rain = 0
KSC1 242023Z 15014KT 26/21 A2995 RMK A01 T02610205  RH  071%=      5-min Rain = 0
KSC1 242024Z 15013KT 26/20 A2995 RMK A01 T02610203  RH  070%=      5-min Rain = 0
KSC1 242025Z 14015KT 26/20 A2995 RMK A01 T02600202  RH  070%=      5-min Rain = 0
KSC1 242026Z 15014G19KT 26/20 A2995 RMK A01 T02600201  RH  070%=      5-min Rain = 0
KSC1 242027Z 15014G19KT 26/20 A2995 RMK A01 T02590202  RH  071%=      5-min Rain = 0
KSC1 242028Z 14015KT 26/20 A2995 RMK A01 T02590201  RH  070%=      5-min Rain = 0
KSC1 242029Z 15016KT 26/20 A2995 RMK A01 T02590201  RH  070%=      5-min Rain = 0
KSC1 242030Z 15012G19KT 26/20 A2995 RMK A01 T02590202  RH  071%=      5-min Rain = 0
KSC1 242031Z 14016KT 26/20 A2995 RMK A01 T02590201  RH  070%=      5-min Rain = 0
KSC1 242032Z 15014KT 26/20 A2995 RMK A01 T02590201  RH  070%=      5-min Rain = 0
KSC1 242033Z 15013G18KT 26/20 A2995 RMK A01 T02590201  RH  070%=      5-min Rain = 0
KSC1 242034Z 15011KT 26/20 A2995 RMK A01 T02590202  RH  071%=      5-min Rain = 0
KSC1 242035Z 15013G19KT 26/20 A2995 RMK A01 T02600203  RH  071%=      5-min Rain = 0
KSC1 242036Z 15011KT 26/20 A2995 RMK A01 T02600203  RH  071%=      5-min Rain = 0
KSC1 242037Z 14010G16KT 26/20 A2995 RMK A01 T02600204  RH  071%=      5-min Rain = 0
KSC1 242038Z 14016KT 26/20 A2995 RMK A01 T02600202  RH  070%=      5-min Rain = 0
KSC1 242039Z 15014G19KT 26/20 A2995 RMK A01 T02600201  RH  070%=      5-min Rain = 0
KSC1 242040Z 15014G20KT 26/20 A2995 RMK A01 T02600201  RH  070%=      5-min Rain = 0
KSC1 242041Z 15014KT 26/20 A2995 RMK A01 T02590201  RH  070%=      5-min Rain = 0
KSC1 242042Z 15012KT 26/20 A2995 RMK A01 T02600202  RH  070%=      5-min Rain = 0
KSC1 242043Z 15011KT 26/20 A2995 RMK A01 T02600203  RH  071%=      5-min Rain = 0
KSC1 242044Z 16014KT 26/20 A2995 RMK A01 T02600203  RH  071%=      5-min Rain = 0
KSC1 242045Z 16013KT 26/20 A2995 RMK A01 T02590203  RH  071%=      5-min Rain = 0
KSC1 242046Z 15013KT 26/20 A2995 RMK A01 T02590203  RH  071%=      5-min Rain = 0
KSC1 242047Z 15014KT 26/20 A2995 RMK A01 T02590203  RH  071%=      5-min Rain = 0
KSC1 242048Z 15014KT 26/20 A2994 RMK A01 T02590203  RH  071%=      5-min Rain = 0
KSC1 242049Z 14012KT 26/20 A2994 RMK A01 T02590203  RH  072%=      5-min Rain = 0
KSC1 242050Z 14014KT 26/20 A2994 RMK A01 T02590204  RH  072%=      5-min Rain = 0
KSC1 242051Z 14012KT 26/20 A2994 RMK A01 T02590203  RH  071%=      5-min Rain = 0
KSC1 242052Z 15011KT 26/20 A2994 RMK A01 T02590204  RH  071%=      5-min Rain = 0
KSC1 242053Z 14010G15KT 26/21 A2994 RMK A01 T02590205  RH  072%=      5-min Rain = 0
KSC1 242054Z 14008KT 26/21 A2994 RMK A01 T02590206  RH  072%=      5-min Rain = 0
KSC1 242055Z 13012KT 26/21 A2994 RMK A01 T02600206  RH  072%=      5-min Rain = 0
KSC1 242056Z 14012KT 26/21 A2994 RMK A01 T02600205  RH  072%=      5-min Rain = 0
KSC1 242057Z 14010KT 26/21 A2994 RMK A01 T02600206  RH  072%=      5-min Rain = 0
KSC1 242058Z 14012G17KT 26/21 A2994 RMK A01 T02600205  RH  072%=      5-min Rain = 0
KSC1 242059Z 13015KT 26/20 A2994 RMK A01 T02600204  RH  071%=      5-min Rain = 0
KSC1 242100Z 14012KT 26/20 A2994 RMK A01 T02590203  RH  071%=      5-min Rain = 0
KSC1 242101Z 14015KT 26/20 A2993 RMK A01 T02590203  RH  071%=      5-min Rain = 0
KSC1 242102Z 14013KT 26/20 A2993 RMK A01 T02590202  RH  071%=      5-min Rain = 0
KSC1 242103Z 14012G18KT 26/20 A2993 RMK A01 T02590203  RH  071%=      5-min Rain = 0
KSC1 242104Z 14011KT 26/20 A2993 RMK A01 T02590203  RH  071%=      5-min Rain = 0
KSC1 242105Z 14011G16KT 26/20 A2993 RMK A01 T02590204  RH  072%=      5-min Rain = 0
KSC1 242106Z 13013KT 26/20 A2993 RMK A01 T02590203  RH  071%=      5-min Rain = 0
KSC1 242107Z 14013KT 26/20 A2993 RMK A01 T02590203  RH  071%=      5-min Rain = 0
KSC1 242108Z 14011KT 26/20 A2993 RMK A01 T02590202  RH  071%=      5-min Rain = 0
KSC1 242109Z 14010KT 26/20 A2993 RMK A01 T02590203  RH  071%=      5-min Rain = 0
KSC1 242110Z 13013G18KT 26/20 A2993 RMK A01 T02590204  RH  072%=      5-min Rain = 0
KSC1 242111Z 14012KT 26/20 A2993 RMK A01 T02580203  RH  072%=      5-min Rain = 0
KSC1 242112Z 14009KT 26/20 A2993 RMK A01 T02580204  RH  072%=      5-min Rain = 0
KSC1 242113Z 14006KT 26/21 A2993 RMK A01 T02590206  RH  073%=      5-min Rain = 0
KSC1 242114Z 13007KT 26/21 A2993 RMK A01 T02590207  RH  073%=      5-min Rain = 0
KSC1 242115Z 13011KT 26/21 A2993 RMK A01 T02580206  RH  073%=      5-min Rain = 0
KSC1 242116Z 14010KT 26/21 A2993 RMK A01 T02580205  RH  073%=      5-min Rain = 0
KSC1 242117Z 13010G15KT 26/21 A2993 RMK A01 T02580205  RH  073%=      5-min Rain = 0
KSC1 242118Z 14011KT 26/21 A2993 RMK A01 T02580205  RH  073%=      5-min Rain = 0
KSC1 242119Z 14013KT 26/20 A2993 RMK A01 T02570204  RH  072%=      5-min Rain = 0
KSC1 242120Z 13010KT 26/20 A2993 RMK A01 T02570204  RH  073%=      5-min Rain = 0
KSC1 242121Z 13012KT 26/21 A2993 RMK A01 T02570205  RH  073%=      5-min Rain = 0
KSC1 242122Z 13010KT 26/21 A2993 RMK A01 T02570206  RH  074%=      5-min Rain = 0
KSC1 242123Z 13010KT 26/21 A2993 RMK A01 T02560206  RH  074%=      5-min Rain = 0
KSC1 242124Z 14008KT 26/21 A2993 RMK A01 T02560207  RH  074%=      5-min Rain = 0
KSC1 242125Z 13011KT 26/21 A2993 RMK A01 T02560206  RH  074%=      5-min Rain = 0
KSC1 242126Z 13009KT 26/21 A2993 RMK A01 T02560207  RH  074%=      5-min Rain = 0
KSC1 242127Z 13011KT 26/21 A2993 RMK A01 T02560208  RH  075%=      5-min Rain = 0
KSC1 242128Z 13012KT 26/21 A2993 RMK A01 T02560207  RH  074%=      5-min Rain = 0
KSC1 242129Z 13009KT 26/21 A2992 RMK A01 T02560206  RH  074%=      5-min Rain = 0
KSC1 242130Z 13010KT 26/21 A2992 RMK A01 T02560208  RH  075%=      5-min Rain = 0
KSC1 242131Z 13010KT 26/21 A2992 RMK A01 T02560208  RH  075%=      5-min Rain = 0
KSC1 242132Z 13009KT 26/21 A2992 RMK A01 T02560209  RH  075%=      5-min Rain = 0
KSC1 242133Z 13011KT 26/21 A2992 RMK A01 T02560208  RH  075%=      5-min Rain = 0
KSC1 242134Z 13010KT 26/21 A2992 RMK A01 T02560208  RH  075%=      5-min Rain = 0
KSC1 242135Z 12010KT 26/21 A2992 RMK A01 T02560209  RH  075%=      5-min Rain = 0
KSC1 242136Z 12010KT 26/21 A2991 RMK A01 T02560208  RH  075%=      5-min Rain = 0
KSC1 242137Z 12010KT 26/21 A2991 RMK A01 T02560207  RH  075%=      5-min Rain = 0
KSC1 242138Z 12011KT 26/21 A2991 RMK A01 T02560206  RH  074%=      5-min Rain = 0
KSC1 242139Z 12012KT 26/21 A2991 RMK A01 T02560206  RH  074%=      5-min Rain = 0
KSC1 242140Z 13010KT 26/21 A2991 RMK A01 T02560207  RH  074%=      5-min Rain = 0
KSC1 242141Z 13012KT 26/21 A2991 RMK A01 T02560206  RH  074%=      5-min Rain = 0
KSC1 242142Z 13010KT 26/21 A2991 RMK A01 T02560206  RH  074%=      5-min Rain = 0
KSC1 242143Z 12010KT 26/21 A2991 RMK A01 T02560206  RH  074%=      5-min Rain = 0
KSC1 242144Z 13009KT 26/21 A2991 RMK A01 T02560207  RH  074%=      5-min Rain = 0
KSC1 242145Z 13009KT 26/21 A2991 RMK A01 T02560207  RH  074%=      5-min Rain = 0
KSC1 242146Z 12011KT 26/21 A2991 RMK A01 T02560206  RH  074%=      5-min Rain = 0
KSC1 242147Z 13008KT 26/21 A2991 RMK A01 T02560205  RH  073%=      5-min Rain = 0
KSC1 242148Z 13010G15KT 26/21 A2991 RMK A01 T02570206  RH  074%=      5-min Rain = 0
KSC1 242149Z 13012KT 26/20 A2991 RMK A01 T02570204  RH  073%=      5-min Rain = 0
KSC1 242150Z 13009KT 26/20 A2991 RMK A01 T02570204  RH  073%=      5-min Rain = 0
KSC1 242151Z 14011KT 26/20 A2991 RMK A01 T02570204  RH  073%=      5-min Rain = 0
KSC1 242152Z 13009KT 26/21 A2991 RMK A01 T02570205  RH  073%=      5-min Rain = 0
KSC1 242153Z 13008KT 26/21 A2991 RMK A01 T02570205  RH  073%=      5-min Rain = 0
KSC1 242154Z 14007KT 26/21 A2991 RMK A01 T02570205  RH  073%=      5-min Rain = 0
KSC1 242155Z 14007KT 26/21 A2991 RMK A01 T02560205  RH  073%=      5-min Rain = 0
KSC1 242156Z 14008KT 26/21 A2991 RMK A01 T02560205  RH  073%=      5-min Rain = 0
KSC1 242157Z 14008KT 26/20 A2991 RMK A01 T02560203  RH  073%=      5-min Rain = 0
KSC1 242158Z 14006KT 26/20 A2991 RMK A01 T02560204  RH  073%=      5-min Rain = 0
KSC1 242159Z 14006KT 26/20 A2991 RMK A01 T02560204  RH  073%=      5-min Rain = 0
KSC1 242200Z 15006KT 26/21 A2991 RMK A01 T02560205  RH  073%=      5-min Rain = 0
KSC1 242201Z 15004KT 26/21 A2991 RMK A01 T02560205  RH  074%=      5-min Rain = 0
KSC1 242202Z 15006KT 26/21 A2991 RMK A01 T02550205  RH  074%=      5-min Rain = 0
KSC1 242203Z 15009KT 26/20 A2991 RMK A01 T02550204  RH  073%=      5-min Rain = 0
KSC1 242204Z 15010KT 26/20 A2991 RMK A01 T02550202  RH  072%=      5-min Rain = 0
KSC1 242205Z 15008KT 26/20 A2991 RMK A01 T02550202  RH  072%=      5-min Rain = 0
KSC1 242206Z 15008KT 26/20 A2992 RMK A01 T02550202  RH  072%=      5-min Rain = 0
KSC1 242207Z 15008KT 26/20 A2992 RMK A01 T02550202  RH  072%=      5-min Rain = 0
KSC1 242208Z 14008KT 26/20 A2992 RMK A01 T02550201  RH  072%=      5-min Rain = 0
KSC1 242209Z 14010KT 26/20 A2992 RMK A01 T02560200  RH  071%=      5-min Rain = 0
KSC1 242210Z 14008KT 26/20 A2992 RMK A01 T02560200  RH  071%=      5-min Rain = 0
KSC1 242211Z 14007KT 26/20 A2992 RMK A01 T02560201  RH  072%=      5-min Rain = 0
KSC1 242212Z 13007KT 26/20 A2991 RMK A01 T02560202  RH  072%=      5-min Rain = 0
KSC1 242213Z 13008KT 26/20 A2991 RMK A01 T02550200  RH  072%=      5-min Rain = 0
KSC1 242214Z 13007KT 26/20 A2991 RMK A01 T02550200  RH  071%=      5-min Rain = 0
KSC1 242215Z 14009KT 26/20 A2991 RMK A01 T02550201  RH  072%=      5-min Rain = 0
KSC1 242216Z 14007KT 26/20 A2991 RMK A01 T02550201  RH  072%=      5-min Rain = 0
KSC1 242217Z 13008KT 25/20 A2991 RMK A01 T02540200  RH  072%=      5-min Rain = 0
KSC1 242218Z 14006KT 25/20 A2991 RMK A01 T02540200  RH  072%=      5-min Rain = 0
KSC1 242219Z 13009KT 25/20 A2991 RMK A01 T02540201  RH  072%=      5-min Rain = 0
KSC1 242220Z 13008KT 25/20 A2991 RMK A01 T02540199  RH  072%=      5-min Rain = 0
KSC1 242221Z 13009KT 25/20 A2991 RMK A01 T02530199  RH  072%=      5-min Rain = 0
KSC1 242222Z 13009KT 25/20 A2991 RMK A01 T02530199  RH  072%=      5-min Rain = 0
KSC1 242223Z 14009KT 25/20 A2991 RMK A01 T02530199  RH  072%=      5-min Rain = 0
KSC1 242224Z 13011KT 25/20 A2991 RMK A01 T02530197  RH  071%=      5-min Rain = 0
KSC1 242225Z 14008KT 25/20 A2991 RMK A01 T02540197  RH  071%=      5-min Rain = 0
KSC1 242226Z 13010KT 25/20 A2991 RMK A01 T02540197  RH  071%=      5-min Rain = 0
KSC1 242227Z 13010KT 25/20 A2991 RMK A01 T02540196  RH  070%=      5-min Rain = 0
KSC1 242228Z 13010KT 26/20 A2991 RMK A01 T02550196  RH  070%=      5-min Rain = 0
KSC1 242229Z 13008KT 26/20 A2991 RMK A01 T02550197  RH  070%=      5-min Rain = 0
KSC1 242230Z 13009KT 26/20 A2991 RMK A01 T02550196  RH  070%=      5-min Rain = 0
KSC1 242231Z 14010KT 26/20 A2992 RMK A01 T02550195  RH  069%=      5-min Rain = 0
KSC1 242232Z 13013KT 26/19 A2992 RMK A01 T02550194  RH  069%=      5-min Rain = 0
KSC1 242233Z 13008KT 26/20 A2992 RMK A01 T02550195  RH  069%=      5-min Rain = 0
KSC1 242234Z 13008KT 26/20 A2992 RMK A01 T02550195  RH  069%=      5-min Rain = 0
KSC1 242235Z 13011G16KT 26/19 A2992 RMK A01 T02550194  RH  069%=      5-min Rain = 0
KSC1 242236Z 14009KT 26/19 A2992 RMK A01 T02550194  RH  069%=      5-min Rain = 0
KSC1 242237Z 13011KT 26/19 A2992 RMK A01 T02550194  RH  069%=      5-min Rain = 0
KSC1 242238Z 14009KT 26/19 A2992 RMK A01 T02550193  RH  069%=      5-min Rain = 0
KSC1 242239Z 13010KT 26/19 A2992 RMK A01 T02550194  RH  069%=      5-min Rain = 0
KSC1 242240Z 13009KT 26/19 A2992 RMK A01 T02550194  RH  069%=      5-min Rain = 0
KSC1 242241Z 14010G15KT 26/19 A2992 RMK A01 T02550194  RH  069%=      5-min Rain = 0
KSC1 242242Z 14011KT 25/19 A2992 RMK A01 T02540193  RH  069%=      5-min Rain = 0
KSC1 242243Z 14010KT 25/19 A2992 RMK A01 T02540193  RH  069%=      5-min Rain = 0
KSC1 242244Z 13009KT 25/19 A2992 RMK A01 T02540193  RH  069%=      5-min Rain = 0
KSC1 242245Z 13010KT 25/19 A2992 RMK A01 T02540193  RH  069%=      5-min Rain = 0
KSC1 242246Z 12008KT 25/19 A2992 RMK A01 T02540194  RH  069%=      5-min Rain = 0
KSC1 242247Z 13006KT 25/20 A2992 RMK A01 T02530196  RH  070%=      5-min Rain = 0
KSC1 242248Z 13008KT 25/20 A2992 RMK A01 T02520195  RH  071%=      5-min Rain = 0
KSC1 242249Z 14006KT 25/20 A2992 RMK A01 T02510196  RH  071%=      5-min Rain = 0
KSC1 242250Z 14007KT 25/20 A2992 RMK A01 T02510196  RH  072%=      5-min Rain = 0
KSC1 242251Z 13007KT 25/20 A2992 RMK A01 T02510196  RH  072%=      5-min Rain = 0
KSC1 242252Z 13007KT 25/20 A2992 RMK A01 T02510196  RH  072%=      5-min Rain = 0
KSC1 242253Z 13008KT 25/20 A2992 RMK A01 T02510196  RH  072%=      5-min Rain = 0
KSC1 242254Z 13007KT 25/20 A2992 RMK A01 T02500196  RH  072%=      5-min Rain = 0
KSC1 242255Z 13007KT 25/20 A2992 RMK A01 T02500196  RH  072%=      5-min Rain = 0
KSC1 242256Z 14008KT 25/20 A2992 RMK A01 T02500197  RH  072%=      5-min Rain = 0
KSC1 242257Z 14009KT 25/20 A2992 RMK A01 T02500196  RH  072%=      5-min Rain = 0
KSC1 242258Z 14007KT 25/20 A2993 RMK A01 T02500195  RH  071%=      5-min Rain = 0
KSC1 242259Z 15007KT 25/20 A2993 RMK A01 T02510196  RH  071%=      5-min Rain = 0
KSC1 242300Z 15008KT 25/20 A2993 RMK A01 T02510195  RH  071%=      5-min Rain = 0
KSC1 242301Z 14008KT 25/19 A2993 RMK A01 T02510194  RH  071%=      5-min Rain = 0
KSC1 242302Z 14007KT 25/20 A2993 RMK A01 T02520195  RH  071%=      5-min Rain = 0
KSC1 242303Z 14006KT 25/19 A2992 RMK A01 T02520194  RH  070%=      5-min Rain = 0
KSC1 242304Z 15008KT 25/19 A2993 RMK A01 T02520194  RH  070%=      5-min Rain = 0
KSC1 242305Z 15007KT 25/20 A2993 RMK A01 T02520195  RH  071%=      5-min Rain = 0
KSC1 242306Z 15008KT 25/19 A2993 RMK A01 T02520194  RH  071%=      5-min Rain = 0
KSC1 242307Z 15007KT 25/20 A2993 RMK A01 T02520195  RH  071%=      5-min Rain = 0
KSC1 242308Z 15009KT 25/20 A2993 RMK A01 T02520195  RH  071%=      5-min Rain = 0
KSC1 242309Z 16008KT 25/19 A2993 RMK A01 T02520194  RH  070%=      5-min Rain = 0
KSC1 242310Z 14007KT 25/19 A2993 RMK A01 T02510194  RH  070%=      5-min Rain = 0
KSC1 242311Z 14009KT 25/19 A2992 RMK A01 T02520194  RH  070%=      5-min Rain = 0
KSC1 242312Z 14008KT 25/19 A2992 RMK A01 T02520194  RH  070%=      5-min Rain = 0
KSC1 242313Z 15008KT 25/19 A2992 RMK A01 T02520194  RH  070%=      5-min Rain = 0
KSC1 242314Z 15005KT 25/20 A2993 RMK A01 T02520195  RH  070%=      5-min Rain = 0
KSC1 242315Z 15006KT 25/20 A2993 RMK A01 T02520196  RH  071%=      5-min Rain = 0
KSC1 242316Z 14007KT 25/20 A2993 RMK A01 T02510195  RH  071%=      5-min Rain = 0
KSC1 242317Z 14007KT 25/20 A2992 RMK A01 T02520195  RH  071%=      5-min Rain = 0
KSC1 242318Z 14007KT 25/20 A2992 RMK A01 T02520195  RH  071%=      5-min Rain = 0
KSC1 242319Z 14007KT 25/19 A2992 RMK A01 T02520194  RH  070%=      5-min Rain = 0
KSC1 242320Z 14010KT 25/19 A2992 RMK A01 T02510194  RH  070%=      5-min Rain = 0
KSC1 242321Z 14007KT 25/19 A2992 RMK A01 T02520194  RH  070%=      5-min Rain = 0
KSC1 242322Z 14008KT 25/19 A2992 RMK A01 T02510194  RH  070%=      5-min Rain = 0
KSC1 242323Z 14007KT 25/19 A2992 RMK A01 T02520194  RH  070%=      5-min Rain = 0
KSC1 242324Z 14007KT 25/19 A2992 RMK A01 T02520194  RH  070%=      5-min Rain = 0
KSC1 242325Z 15008KT 25/19 A2992 RMK A01 T02520194  RH  070%=      5-min Rain = 0
KSC1 242326Z 15008G13KT 25/19 A2992 RMK A01 T02520193  RH  070%=      5-min Rain = 0
KSC1 242327Z 14008KT 25/19 A2992 RMK A01 T02520193  RH  070%=      5-min Rain = 0
KSC1 242328Z 14010G15KT 25/19 A2992 RMK A01 T02510193  RH  070%=      5-min Rain = 0
KSC1 242329Z 14010KT 25/19 A2992 RMK A01 T02520193  RH  070%=      5-min Rain = 0
KSC1 242330Z 15009KT 25/19 A2992 RMK A01 T02520192  RH  070%=      5-min Rain = 0
KSC1 242331Z 14010KT 25/19 A2992 RMK A01 T02520193  RH  070%=      5-min Rain = 0
KSC1 242332Z 15009KT 25/19 A2992 RMK A01 T02520193  RH  070%=      5-min Rain = 0
KSC1 242333Z 15010KT 25/19 A2992 RMK A01 T02520193  RH  070%=      5-min Rain = 0
KSC1 242334Z 14012KT 25/19 A2992 RMK A01 T02520193  RH  070%=      5-min Rain = 0
KSC1 242335Z 15008KT 25/19 A2993 RMK A01 T02520192  RH  069%=      5-min Rain = 0
KSC1 242336Z 15010KT 25/19 A2993 RMK A01 T02520192  RH  070%=      5-min Rain = 0
KSC1 242337Z 14011KT 25/19 A2993 RMK A01 T02520193  RH  070%=      5-min Rain = 0
KSC1 242338Z 15013KT 25/19 A2993 RMK A01 T02520192  RH  070%=      5-min Rain = 0
KSC1 242339Z 15014KT 25/19 A2993 RMK A01 T02520191  RH  069%=      5-min Rain = 0
KSC1 242340Z 15013KT 25/19 A2993 RMK A01 T02520191  RH  069%=      5-min Rain = 0
KSC1 242341Z 15012KT 25/19 A2993 RMK A01 T02530192  RH  069%=      5-min Rain = 0
KSC1 242342Z 15013KT 25/19 A2992 RMK A01 T02530192  RH  069%=      5-min Rain = 0
KSC1 242343Z 15013G18KT 25/19 A2992 RMK A01 T02530192  RH  069%=      5-min Rain = 0
KSC1 242344Z 15011KT 25/19 A2992 RMK A01 T02530192  RH  069%=      5-min Rain = 0
KSC1 242345Z 15013KT 25/19 A2992 RMK A01 T02530192  RH  069%=      5-min Rain = 0
KSC1 242346Z 15013KT 25/19 A2992 RMK A01 T02520192  RH  069%=      5-min Rain = 0
KSC1 242347Z 15014KT 25/19 A2992 RMK A01 T02520192  RH  069%=      5-min Rain = 0
KSC1 242348Z 15014KT 25/19 A2992 RMK A01 T02520192  RH  069%=      5-min Rain = 0
KSC1 242349Z 15013G19KT 25/19 A2992 RMK A01 T02520192  RH  069%=      5-min Rain = 0
KSC1 242350Z 15014G19KT 25/19 A2992 RMK A01 T02520192  RH  070%=      5-min Rain = 0
KSC1 242351Z 15014KT 25/19 A2992 RMK A01 T02510191  RH  069%=      5-min Rain = 0
KSC1 242352Z 14012G17KT 25/19 A2991 RMK A01 T02510192  RH  070%=      5-min Rain = 0
KSC1 242353Z 15013KT 25/19 A2992 RMK A01 T02510192  RH  070%=      5-min Rain = 0
KSC1 242354Z 16014KT 25/19 A2993 RMK A01 T02510192  RH  070%=      5-min Rain = 0
KSC1 242355Z 16013KT 25/19 A2993 RMK A01 T02510193  RH  070%=      5-min Rain = 0
KSC1 242356Z 16014G19KT 25/19 A2993 RMK A01 T02500193  RH  071%=      5-min Rain = 0
KSC1 242357Z 16015KT 25/19 A2993 RMK A01 T02500193  RH  071%=      5-min Rain = 0
KSC1 242358Z 16016KT 25/19 A2994 RMK A01 T02500192  RH  070%=      5-min Rain = 0
KSC1 242359Z 17015KT 25/19 A2994 RMK A01 T02500192  RH  070%=      5-min Rain = 0
KSC1 250000Z 17015KT 25/19 A2994 RMK A01 T02500193  RH  070%=      5-min Rain = 0
KSC1 250001Z 16014G19KT 25/19 A2994 RMK A01 T02500193  RH  071%=      5-min Rain = 0
KSC1 250002Z 17013KT 25/19 A2995 RMK A01 T02490194  RH  072%=      5-min Rain = 0
KSC1 250003Z 17013KT 25/20 A2995 RMK A01 T02480195  RH  073%=      5-min Rain = 0
KSC1 250004Z 16014KT 25/20 A2995 RMK A01 T02460196  RH  073%=      5-min Rain = 0
KSC1 250005Z 17016KT 25/20 A2995 RMK A01 T02450196  RH  074%=      5-min Rain = 0
KSC1 250006Z 17014G19KT 24/20 A2996 RMK A01 T02440198  RH  075%=      5-min Rain = 0
KSC1 250007Z 17016KT 24/20 A2996 RMK A01 T02420198  RH  076%=      5-min Rain = 0
KSC1 250008Z 17015G21KT 24/20 A2996 RMK A01 T02420199  RH  077%=      5-min Rain = 0
KSC1 250009Z 17016G21KT 24/20 A2996 RMK A01 T02410199  RH  077%=      5-min Rain = 0
KSC1 250010Z 17013G18KT 24/20 A2996 RMK A01 T02400200  RH  078%=      5-min Rain = 0
KSC1 250011Z 18013KT 24/20 A2996 RMK A01 T02390202  RH  080%=      5-min Rain = 0
KSC1 250012Z 18010KT 24/20 A2996 RMK A01 T02360204  RH  082%=      5-min Rain = 0
KSC1 250013Z 17012KT 23/21 A2996 RMK A01 T02340205  RH  084%=      5-min Rain = 0.01
KSC1 250014Z 18012KT 23/21 A2997 RMK A01 T02330205  RH  084%=      5-min Rain = 0
KSC1 250015Z 18012KT 23/20 A2997 RMK A01 T02330204  RH  084%=      5-min Rain = 0
KSC1 250016Z 18012KT 23/21 A2997 RMK A01 T02330205  RH  084%=      5-min Rain = 0
KSC1 250017Z 18012KT 23/20 A2997 RMK A01 T02330204  RH  084%=      5-min Rain = 0
KSC1 250018Z 18011KT 23/20 A2997 RMK A01 T02330204  RH  084%=      5-min Rain = 0
KSC1 250019Z 17011KT 23/20 A2997 RMK A01 T02330203  RH  083%=      5-min Rain = 0.01
KSC1 250020Z 17011KT 23/21 A2997 RMK A01 T02330205  RH  084%=      5-min Rain = 0
KSC1 250021Z 17010KT 23/21 A2997 RMK A01 T02330205  RH  084%=      5-min Rain = 0
KSC1 250022Z 17009KT 23/21 A2997 RMK A01 T02320206  RH  085%=      5-min Rain = 0
KSC1 250023Z 17010KT 23/21 A2997 RMK A01 T02310207  RH  086%=      5-min Rain = 0
KSC1 250024Z 17009KT 23/21 A2997 RMK A01 T02300205  RH  086%=      5-min Rain = 0
KSC1 250025Z 17010KT 23/21 A2997 RMK A01 T02310205  RH  085%=      5-min Rain = 0
KSC1 250026Z 17010KT 23/20 A2996 RMK A01 T02310204  RH  085%=      5-min Rain = 0
KSC1 250027Z 16008KT 23/21 A2996 RMK A01 T02320205  RH  085%=      5-min Rain = 0
KSC1 250028Z 16010KT 23/21 A2996 RMK A01 T02320205  RH  085%=      5-min Rain = 0
KSC1 250029Z 16008KT 23/21 A2995 RMK A01 T02320205  RH  085%=      5-min Rain = 0
KSC1 250030Z 15009KT 23/21 A2995 RMK A01 T02320206  RH  085%=      5-min Rain = 0
KSC1 250031Z 16009KT 23/21 A2995 RMK A01 T02310207  RH  086%=      5-min Rain = 0
KSC1 250032Z 16008KT 23/21 A2995 RMK A01 T02300207  RH  087%=      5-min Rain = 0
KSC1 250033Z 17009KT 23/21 A2995 RMK A01 T02300206  RH  086%=      5-min Rain = 0
KSC1 250034Z 17010KT 23/21 A2995 RMK A01 T02300206  RH  086%=      5-min Rain = 0
KSC1 250035Z 16010KT 23/21 A2995 RMK A01 T02300205  RH  086%=      5-min Rain = 0
KSC1 250036Z 16010KT 23/20 A2995 RMK A01 T02300204  RH  085%=      5-min Rain = 0
KSC1 250037Z 16010KT 23/20 A2995 RMK A01 T02310204  RH  085%=      5-min Rain = 0
KSC1 250038Z 16010KT 23/20 A2994 RMK A01 T02320203  RH  084%=      5-min Rain = 0
KSC1 250039Z 15009KT 23/20 A2994 RMK A01 T02320203  RH  084%=      5-min Rain = 0
KSC1 250040Z 15011KT 23/20 A2994 RMK A01 T02320203  RH  084%=      5-min Rain = 0.01
KSC1 250041Z 16011KT 23/20 A2994 RMK A01 T02320204  RH  084%=      5-min Rain = 0
KSC1 250042Z 16012KT 23/20 A2994 RMK A01 T02320204  RH  084%=      5-min Rain = 0
KSC1 250043Z 16009KT 23/20 A2995 RMK A01 T02320204  RH  084%=      5-min Rain = 0
KSC1 250044Z 16009KT 23/21 A2995 RMK A01 T02320205  RH  085%=      5-min Rain = 0
KSC1 250045Z 16013KT 23/21 A2995 RMK A01 T02310205  RH  085%=      5-min Rain = 0
KSC1 250046Z 16013KT 23/20 A2995 RMK A01 T02310204  RH  085%=      5-min Rain = 0
KSC1 250047Z 17012KT 23/20 A2995 RMK A01 T02320203  RH  084%=      5-min Rain = 0
KSC1 250048Z 17011KT 23/20 A2995 RMK A01 T02330203  RH  084%=      5-min Rain = 0
KSC1 250049Z 16011KT 23/20 A2995 RMK A01 T02330204  RH  084%=      5-min Rain = 0
KSC1 250050Z 16011KT 23/20 A2995 RMK A01 T02320204  RH  084%=      5-min Rain = 0
KSC1 250051Z 16011KT 23/21 A2995 RMK A01 T02320205  RH  085%=      5-min Rain = 0
KSC1 250052Z 17012KT 23/21 A2995 RMK A01 T02320205  RH  085%=      5-min Rain = 0
KSC1 250053Z 16012KT 23/20 A2994 RMK A01 T02310204  RH  085%=      5-min Rain = 0
KSC1 250054Z 16012KT 23/21 A2995 RMK A01 T02310205  RH  085%=      5-min Rain = 0
KSC1 250055Z 17013KT 23/21 A2994 RMK A01 T02310205  RH  085%=      5-min Rain = 0
KSC1 250056Z 17014KT 23/20 A2994 RMK A01 T02310204  RH  085%=      5-min Rain = 0
KSC1 250057Z 17013G18KT 23/21 A2994 RMK A01 T02320205  RH  085%=      5-min Rain = 0
KSC1 250058Z 16014KT 23/21 A2994 RMK A01 T02320205  RH  085%=      5-min Rain = 0
KSC1 250059Z 16016G22KT 23/20 A2994 RMK A01 T02320204  RH  084%=      5-min Rain = 0
KSC1 250100Z 16016KT 23/20 A2993 RMK A01 T02320203  RH  084%=      5-min Rain = 0
KSC1 250101Z 14014G19KT 23/20 A2992 RMK A01 T02330203  RH  083%=      5-min Rain = 0
KSC1 250102Z 14012KT 23/20 A2991 RMK A01 T02330204  RH  084%=      5-min Rain = 0
KSC1 250103Z 12014KT 23/20 A299 RMK A01 T02330204  RH  084%=      5-min Rain = 0
KSC1 250104Z 12014KT 23/21 A2989 RMK A01 T02320206  RH  085%=      5-min Rain = 0
KSC1 250105Z 11012KT 23/21 A2988 RMK A01 T02310205  RH  086%=      5-min Rain = 0.01
KSC1 250106Z 11011KT 23/21 A2988 RMK A01 T02300206  RH  086%=      5-min Rain = 0
KSC1 250107Z 10011KT 23/21 A2988 RMK A01 T02290208  RH  088%=      5-min Rain = 0
KSC1 250108Z 11011KT 23/21 A2988 RMK A01 T02280208  RH  088%=      5-min Rain = 0
KSC1 250109Z 11012KT 23/21 A2988 RMK A01 T02280205  RH  087%=      5-min Rain = 0
KSC1 250110Z 11014KT 23/20 A2988 RMK A01 T02280203  RH  086%=      5-min Rain = 0
KSC1 250111Z 11013KT 23/20 A2987 RMK A01 T02290203  RH  085%=      5-min Rain = 0
KSC1 250112Z 11011KT 23/20 A2987 RMK A01 T02290203  RH  085%=      5-min Rain = 0
KSC1 250113Z 10012KT 23/20 A2986 RMK A01 T02290204  RH  086%=      5-min Rain = 0
KSC1 250114Z 10013KT 23/20 A2986 RMK A01 T02290204  RH  085%=      5-min Rain = 0
KSC1 250115Z 10012KT 23/20 A2985 RMK A01 T02290203  RH  085%=      5-min Rain = 0
KSC1 250116Z 10013KT 23/21 A2985 RMK A01 T02290205  RH  086%=      5-min Rain = 0
KSC1 250117Z 09013KT 23/21 A2983 RMK A01 T02280206  RH  087%=      5-min Rain = 0
KSC1 250118Z 08013KT 23/21 A2982 RMK A01 T02280206  RH  088%=      5-min Rain = 0
KSC1 250119Z 08012KT 23/21 A2982 RMK A01 T02280206  RH  087%=      5-min Rain = 0
KSC1 250120Z 08012KT 23/20 A2981 RMK A01 T02280203  RH  086%=      5-min Rain = 0
KSC1 250121Z 08013KT 23/20 A2982 RMK A01 T02280202  RH  085%=      5-min Rain = 0
KSC1 250122Z 09011KT 23/20 A2982 RMK A01 T02300200  RH  083%=      5-min Rain = 0
KSC1 250123Z 10010KT 23/20 A2983 RMK A01 T02310200  RH  083%=      5-min Rain = 0
KSC1 250124Z 14012G17KT 23/20 A2985 RMK A01 T02310202  RH  083%=      5-min Rain = 0
KSC1 250125Z 15015KT 23/20 A2987 RMK A01 T02310204  RH  085%=      5-min Rain = 0
KSC1 250126Z 15015KT 23/20 A2988 RMK A01 T02300204  RH  085%=      5-min Rain = 0
KSC1 250127Z 14014KT 23/20 A2988 RMK A01 T02300202  RH  084%=      5-min Rain = 0
KSC1 250128Z 13014KT 23/20 A2988 RMK A01 T02310200  RH  083%=      5-min Rain = 0
KSC1 250129Z 13012KT 23/20 A2988 RMK A01 T02320199  RH  081%=      5-min Rain = 0
KSC1 250130Z 13010G15KT 23/20 A2988 RMK A01 T02340200  RH  081%=      5-min Rain = 0
KSC1 250131Z 13011KT 23/20 A2988 RMK A01 T02340200  RH  081%=      5-min Rain = 0
KSC1 250132Z 13010KT 23/20 A2988 RMK A01 T02340201  RH  082%=      5-min Rain = 0
KSC1 250133Z 12009KT 23/20 A2988 RMK A01 T02330201  RH  082%=      5-min Rain = 0
KSC1 250134Z 13009KT 23/20 A2987 RMK A01 T02320200  RH  082%=      5-min Rain = 0
KSC1 250135Z 13009KT 23/20 A2988 RMK A01 T02330200  RH  082%=      5-min Rain = 0
KSC1 250136Z 13009KT 23/20 A2988 RMK A01 T02320199  RH  082%=      5-min Rain = 0
KSC1 250137Z 13008KT 23/20 A2988 RMK A01 T02330199  RH  081%=      5-min Rain = 0
KSC1 250138Z 13009KT 23/20 A2988 RMK A01 T02330199  RH  081%=      5-min Rain = 0
KSC1 250139Z 13010KT 23/20 A2988 RMK A01 T02340198  RH  080%=      5-min Rain = 0
KSC1 250140Z 13009KT 23/20 A2988 RMK A01 T02340198  RH  080%=      5-min Rain = 0
KSC1 250141Z 13010KT 23/20 A2988 RMK A01 T02340198  RH  080%=      5-min Rain = 0
KSC1 250142Z 13009KT 23/20 A2988 RMK A01 T02340198  RH  080%=      5-min Rain = 0
KSC1 250143Z 13010KT 23/20 A2988 RMK A01 T02340198  RH  080%=      5-min Rain = 0
KSC1 250144Z 13010KT 23/20 A2988 RMK A01 T02340199  RH  081%=      5-min Rain = 0
KSC1 250145Z 13012KT 23/20 A2987 RMK A01 T02330198  RH  081%=      5-min Rain = 0
KSC1 250146Z 13011KT 23/20 A2987 RMK A01 T02330198  RH  081%=      5-min Rain = 0
KSC1 250147Z 12012KT 23/20 A2986 RMK A01 T02330199  RH  081%=      5-min Rain = 0
KSC1 250148Z 12012KT 23/20 A2986 RMK A01 T02320199  RH  082%=      5-min Rain = 0
KSC1 250149Z 13010KT 23/20 A2986 RMK A01 T02320199  RH  082%=      5-min Rain = 0
KSC1 250150Z 13010KT 23/20 A2987 RMK A01 T02310200  RH  082%=      5-min Rain = 0
KSC1 250151Z 14012KT 23/20 A2987 RMK A01 T02300199  RH  082%=      5-min Rain = 0
KSC1 250152Z 13010KT 23/20 A2987 RMK A01 T02310199  RH  082%=      5-min Rain = 0
KSC1 250153Z 14012KT 23/20 A2987 RMK A01 T02310198  RH  082%=      5-min Rain = 0
KSC1 250154Z 13013KT 23/20 A2987 RMK A01 T02310196  RH  081%=      5-min Rain = 0
KSC1 250155Z 13013KT 23/20 A2987 RMK A01 T02320196  RH  080%=      5-min Rain = 0
KSC1 250156Z 13010KT 23/20 A2987 RMK A01 T02320196  RH  080%=      5-min Rain = 0
KSC1 250157Z 13012KT 23/20 A2987 RMK A01 T02320196  RH  080%=      5-min Rain = 0
KSC1 250158Z 14012KT 23/20 A2987 RMK A01 T02320196  RH  080%=      5-min Rain = 0
KSC1 250159Z 14012KT 23/20 A2988 RMK A01 T02320196  RH  080%=      5-min Rain = 0
KSC1 250200Z 14013KT 23/20 A2988 RMK A01 T02320195  RH  080%=      5-min Rain = 0
KSC1 250201Z 14014KT 23/20 A2988 RMK A01 T02330195  RH  079%=      5-min Rain = 0
KSC1 250202Z 14012KT 23/20 A2988 RMK A01 T02330195  RH  079%=      5-min Rain = 0
KSC1 250203Z 14012KT 23/20 A2988 RMK A01 T02330195  RH  079%=      5-min Rain = 0
KSC1 250204Z 14013KT 23/20 A2988 RMK A01 T02330196  RH  079%=      5-min Rain = 0
KSC1 250205Z 14014KT 23/20 A2988 RMK A01 T02330195  RH  079%=      5-min Rain = 0
KSC1 250206Z 14012G18KT 23/19 A2988 RMK A01 T02330194  RH  079%=      5-min Rain = 0
KSC1 250207Z 14013KT 23/20 A2988 RMK A01 T02330195  RH  079%=      5-min Rain = 0
KSC1 250208Z 13011KT 23/20 A2988 RMK A01 T02330195  RH  079%=      5-min Rain = 0
KSC1 250209Z 13011KT 23/20 A2988 RMK A01 T02330195  RH  079%=      5-min Rain = 0
KSC1 250210Z 14010KT 23/20 A2988 RMK A01 T02320195  RH  080%=      5-min Rain = 0
KSC1 250211Z 14009KT 23/20 A2988 RMK A01 T02320195  RH  080%=      5-min Rain = 0
KSC1 250212Z 13009KT 23/20 A2988 RMK A01 T02310195  RH  080%=      5-min Rain = 0
KSC1 250213Z 13008KT 23/20 A2988 RMK A01 T02310195  RH  080%=      5-min Rain = 0
KSC1 250214Z 13009KT 23/20 A2988 RMK A01 T02310196  RH  081%=      5-min Rain = 0
KSC1 250215Z 13011KT 23/20 A2988 RMK A01 T02300195  RH  081%=      5-min Rain = 0
KSC1 250216Z 13008KT 23/20 A2988 RMK A01 T02300196  RH  081%=      5-min Rain = 0
KSC1 250217Z 12011KT 23/20 A2988 RMK A01 T02300196  RH  081%=      5-min Rain = 0
KSC1 250218Z 13010KT 23/20 A2988 RMK A01 T02300195  RH  081%=      5-min Rain = 0
KSC1 250219Z 13011KT 23/20 A2988 RMK A01 T02300195  RH  081%=      5-min Rain = 0
KSC1 250220Z 14010KT 23/20 A2989 RMK A01 T02300195  RH  081%=      5-min Rain = 0
KSC1 250221Z 14009KT 23/20 A2989 RMK A01 T02310196  RH  081%=      5-min Rain = 0
KSC1 250222Z 14011KT 23/20 A299 RMK A01 T02310195  RH  081%=      5-min Rain = 0
KSC1 250223Z 14010KT 23/20 A299 RMK A01 T02300195  RH  080%=      5-min Rain = 0
KSC1 250224Z 14011KT 23/20 A299 RMK A01 T02310195  RH  080%=      5-min Rain = 0
KSC1 250225Z 15010KT 23/20 A299 RMK A01 T02310195  RH  080%=      5-min Rain = 0
KSC1 250226Z 14010KT 23/20 A299 RMK A01 T02310195  RH  080%=      5-min Rain = 0
KSC1 250227Z 14011KT 23/19 A299 RMK A01 T02310194  RH  080%=      5-min Rain = 0
KSC1 250228Z 14010KT 23/19 A299 RMK A01 T02320194  RH  079%=      5-min Rain = 0
KSC1 250229Z 15009KT 23/19 A2991 RMK A01 T02320194  RH  079%=      5-min Rain = 0
KSC1 250230Z 15010KT 23/19 A2991 RMK A01 T02320194  RH  079%=      5-min Rain = 0
KSC1 250231Z 14011KT 23/19 A2991 RMK A01 T02320194  RH  079%=      5-min Rain = 0
KSC1 250232Z 14009KT 23/19 A299 RMK A01 T02330193  RH  078%=      5-min Rain = 0
KSC1 250233Z 14008KT 23/19 A299 RMK A01 T02330194  RH  078%=      5-min Rain = 0
KSC1 250234Z 14010KT 23/19 A299 RMK A01 T02330193  RH  078%=      5-min Rain = 0
KSC1 250235Z 14008G13KT 23/19 A2991 RMK A01 T02330194  RH  079%=      5-min Rain = 0
KSC1 250236Z 14008KT 23/19 A2991 RMK A01 T02330194  RH  079%=      5-min Rain = 0
KSC1 250237Z 14009KT 23/19 A2991 RMK A01 T02320193  RH  079%=      5-min Rain = 0
KSC1 250238Z 15010KT 23/19 A2991 RMK A01 T02320193  RH  079%=      5-min Rain = 0
KSC1 250239Z 14011KT 23/19 A2991 RMK A01 T02320193  RH  078%=      5-min Rain = 0
KSC1 250240Z 14010KT 23/19 A2991 RMK A01 T02330192  RH  078%=      5-min Rain = 0
KSC1 250241Z 14009KT 23/19 A2991 RMK A01 T02330192  RH  078%=      5-min Rain = 0
KSC1 250242Z 14008KT 23/19 A299 RMK A01 T02330193  RH  078%=      5-min Rain = 0
KSC1 250243Z 14009KT 23/19 A299 RMK A01 T02330193  RH  078%=      5-min Rain = 0
KSC1 250244Z 14009KT 23/19 A299 RMK A01 T02320193  RH  078%=      5-min Rain = 0
KSC1 250245Z 13008KT 23/19 A299 RMK A01 T02320193  RH  078%=      5-min Rain = 0
KSC1 250246Z 13009KT 23/19 A299 RMK A01 T02320193  RH  079%=      5-min Rain = 0
KSC1 250247Z 14010KT 23/19 A299 RMK A01 T02320193  RH  079%=      5-min Rain = 0
KSC1 250248Z 13009KT 23/19 A299 RMK A01 T02320193  RH  079%=      5-min Rain = 0
KSC1 250249Z 13009KT 23/19 A299 RMK A01 T02320193  RH  079%=      5-min Rain = 0
KSC1 250250Z 13009KT 23/19 A299 RMK A01 T02310193  RH  079%=      5-min Rain = 0
KSC1 250251Z 13009KT 23/19 A299 RMK A01 T02310193  RH  079%=      5-min Rain = 0
KSC1 250252Z 12010KT 23/19 A299 RMK A01 T02310192  RH  079%=      5-min Rain = 0
KSC1 250253Z 12009KT 23/19 A299 RMK A01 T02310192  RH  079%=      5-min Rain = 0
KSC1 250254Z 12010KT 23/19 A2989 RMK A01 T02310192  RH  078%=      5-min Rain = 0
KSC1 250255Z 12011KT 23/19 A2989 RMK A01 T02310192  RH  078%=      5-min Rain = 0
KSC1 250256Z 12011KT 23/19 A2989 RMK A01 T02310192  RH  078%=      5-min Rain = 0
KSC1 250257Z 12009KT 23/19 A2989 RMK A01 T02320191  RH  078%=      5-min Rain = 0
KSC1 250258Z 11010KT 23/19 A2989 RMK A01 T02320192  RH  078%=      5-min Rain = 0
KSC1 250259Z 12009KT 23/19 A2989 RMK A01 T02320192  RH  078%=      5-min Rain = 0
KSC1 250300Z 12010KT 23/19 A299 RMK A01 T02320192  RH  078%=      5-min Rain = 0
KSC1 250301Z 12011KT 23/19 A299 RMK A01 T02320191  RH  078%=      5-min Rain = 0
KSC1 250302Z 13010KT 23/19 A299 RMK A01 T02330191  RH  078%=      5-min Rain = 0
KSC1 250303Z 13009KT 23/19 A2991 RMK A01 T02330191  RH  077%=      5-min Rain = 0
KSC1 250304Z 14008G13KT 23/19 A2991 RMK A01 T02340191  RH  077%=      5-min Rain = 0
KSC1 250305Z 15010KT 23/19 A2991 RMK A01 T02340191  RH  077%=      5-min Rain = 0
KSC1 250306Z 14009KT 23/19 A2992 RMK A01 T02340192  RH  077%=      5-min Rain = 0
KSC1 250307Z 14008KT 23/19 A2992 RMK A01 T02340192  RH  078%=      5-min Rain = 0
KSC1 250308Z 14010KT 23/19 A2992 RMK A01 T02330192  RH  078%=      5-min Rain = 0
KSC1 250309Z 14010KT 23/19 A2992 RMK A01 T02330192  RH  078%=      5-min Rain = 0
KSC1 250310Z 14010KT 23/19 A2992 RMK A01 T02330192  RH  078%=      5-min Rain = 0
KSC1 250311Z 14009KT 23/19 A2992 RMK A01 T02320192  RH  078%=      5-min Rain = 0
KSC1 250312Z 14011KT 23/19 A2992 RMK A01 T02320191  RH  078%=      5-min Rain = 0
KSC1 250313Z 14009KT 23/19 A2992 RMK A01 T02330191  RH  078%=      5-min Rain = 0
KSC1 250314Z 14010KT 23/19 A2992 RMK A01 T02330192  RH  077%=      5-min Rain = 0
KSC1 250315Z 14011KT 23/19 A2992 RMK A01 T02330191  RH  077%=      5-min Rain = 0
KSC1 250316Z 14010KT 23/19 A2992 RMK A01 T02330191  RH  077%=      5-min Rain = 0
KSC1 250317Z 14010KT 23/19 A2992 RMK A01 T02330191  RH  077%=      5-min Rain = 0
KSC1 250318Z 13009KT 23/19 A2992 RMK A01 T02330191  RH  077%=      5-min Rain = 0
KSC1 250319Z 13009KT 23/19 A2991 RMK A01 T02330192  RH  078%=      5-min Rain = 0
KSC1 250320Z 13008KT 23/19 A2991 RMK A01 T02320192  RH  078%=      5-min Rain = 0
KSC1 250321Z 14008KT 23/19 A2991 RMK A01 T02310192  RH  078%=      5-min Rain = 0
KSC1 250322Z 14008KT 23/19 A2991 RMK A01 T02310192  RH  079%=      5-min Rain = 0
KSC1 250323Z 14009KT 23/19 A2991 RMK A01 T02310192  RH  079%=      5-min Rain = 0
KSC1 250324Z 13008KT 23/19 A2991 RMK A01 T02300192  RH  079%=      5-min Rain = 0
KSC1 250325Z 13008KT 23/19 A2991 RMK A01 T02300192  RH  079%=      5-min Rain = 0
KSC1 250326Z 13008KT 23/19 A2991 RMK A01 T02290192  RH  079%=      5-min Rain = 0
KSC1 250327Z 13008KT 23/19 A2991 RMK A01 T02290192  RH  080%=      5-min Rain = 0
KSC1 250328Z 13010KT 23/19 A2991 RMK A01 T02290192  RH  080%=      5-min Rain = 0
KSC1 250329Z 13008KT 23/19 A2991 RMK A01 T02290192  RH  080%=      5-min Rain = 0
KSC1 250330Z 13009KT 23/19 A2991 RMK A01 T02290192  RH  080%=      5-min Rain = 0
KSC1 250331Z 13009KT 23/19 A2991 RMK A01 T02290192  RH  079%=      5-min Rain = 0
KSC1 250332Z 13009KT 23/19 A2991 RMK A01 T02290192  RH  079%=      5-min Rain = 0
KSC1 250333Z 13009KT 23/19 A299 RMK A01 T02290191  RH  079%=      5-min Rain = 0
KSC1 250334Z 13010KT 23/19 A299 RMK A01 T02290191  RH  079%=      5-min Rain = 0
KSC1 250335Z 13008KT 23/19 A299 RMK A01 T02290191  RH  079%=      5-min Rain = 0
KSC1 250336Z 13009KT 23/19 A299 RMK A01 T02300191  RH  079%=      5-min Rain = 0
KSC1 250337Z 13010KT 23/19 A2991 RMK A01 T02300191  RH  079%=      5-min Rain = 0
KSC1 250338Z 13012KT 23/19 A2991 RMK A01 T02300190  RH  078%=      5-min Rain = 0
KSC1 250339Z 14011KT 23/19 A2991 RMK A01 T02310191  RH  078%=      5-min Rain = 0
KSC1 250340Z 14010KT 23/19 A2991 RMK A01 T02310191  RH  078%=      5-min Rain = 0
KSC1 250341Z 13011KT 23/19 A2991 RMK A01 T02310191  RH  078%=      5-min Rain = 0
KSC1 250342Z 12011KT 23/19 A299 RMK A01 T02310191  RH  078%=      5-min Rain = 0
KSC1 250343Z 12010KT 23/19 A299 RMK A01 T02310191  RH  078%=      5-min Rain = 0
KSC1 250344Z 13011KT 23/19 A299 RMK A01 T02310191  RH  078%=      5-min Rain = 0
KSC1 250345Z 13012KT 23/19 A299 RMK A01 T02300191  RH  079%=      5-min Rain = 0
KSC1 250346Z 14011KT 23/19 A2991 RMK A01 T02300191  RH  079%=      5-min Rain = 0
KSC1 250347Z 14011KT 23/19 A2991 RMK A01 T02300191  RH  078%=      5-min Rain = 0
KSC1 250348Z 13011KT 23/19 A2991 RMK A01 T02300191  RH  078%=      5-min Rain = 0
KSC1 250349Z 14011KT 23/19 A299 RMK A01 T02300191  RH  078%=      5-min Rain = 0
KSC1 250350Z 14011KT 23/19 A299 RMK A01 T02300191  RH  079%=      5-min Rain = 0
KSC1 250351Z 14011KT 23/19 A299 RMK A01 T02300191  RH  078%=      5-min Rain = 0
KSC1 250352Z 14012KT 23/19 A2991 RMK A01 T02300190  RH  078%=      5-min Rain = 0
KSC1 250353Z 14011KT 23/19 A2991 RMK A01 T02310190  RH  078%=      5-min Rain = 0
KSC1 250354Z 15011KT 23/19 A2991 RMK A01 T02310191  RH  078%=      5-min Rain = 0
KSC1 250355Z 15011KT 23/19 A2992 RMK A01 T02310190  RH  078%=      5-min Rain = 0
KSC1 250356Z 16012KT 23/19 A2992 RMK A01 T02320190  RH  077%=      5-min Rain = 0
KSC1 250357Z 15012KT 23/19 A2992 RMK A01 T02320190  RH  077%=      5-min Rain = 0
KSC1 250358Z 15012KT 23/19 A2992 RMK A01 T02330190  RH  077%=      5-min Rain = 0
KSC1 250359Z 15012KT 23/19 A2992 RMK A01 T02330190  RH  077%=      5-min Rain = 0
KSC1 250400Z 15012KT 23/19 A2992 RMK A01 T02330190  RH  077%=      5-min Rain = 0
KSC1 250401Z 15011KT 23/19 A2992 RMK A01 T02330190  RH  077%=      5-min Rain = 0
KSC1 250402Z 15011KT 23/19 A2992 RMK A01 T02330190  RH  077%=      5-min Rain = 0
KSC1 250403Z 15011KT 23/19 A2992 RMK A01 T02330191  RH  077%=      5-min Rain = 0
KSC1 250404Z 15010KT 23/19 A2992 RMK A01 T02330191  RH  077%=      5-min Rain = 0
KSC1 250405Z 14011KT 23/19 A2992 RMK A01 T02330191  RH  077%=      5-min Rain = 0
KSC1 250406Z 14013KT 23/19 A2992 RMK A01 T02330190  RH  077%=      5-min Rain = 0
KSC1 250407Z 14013KT 23/19 A2992 RMK A01 T02330190  RH  077%=      5-min Rain = 0
KSC1 250408Z 14011G16KT 23/19 A2992 RMK A01 T02340190  RH  076%=      5-min Rain = 0
KSC1 250409Z 14011KT 23/19 A2992 RMK A01 T02340190  RH  076%=      5-min Rain = 0
KSC1 250410Z 14012KT 23/19 A2992 RMK A01 T02340190  RH  076%=      5-min Rain = 0
KSC1 250411Z 14015KT 23/19 A2992 RMK A01 T02340190  RH  076%=      5-min Rain = 0
KSC1 250412Z 14011G17KT 24/19 A2992 RMK A01 T02360190  RH  075%=      5-min Rain = 0
KSC1 250413Z 14011KT 24/19 A2992 RMK A01 T02360190  RH  075%=      5-min Rain = 0
KSC1 250414Z 14012KT 24/19 A2992 RMK A01 T02360191  RH  076%=      5-min Rain = 0
KSC1 250415Z 14011KT 24/19 A2992 RMK A01 T02360190  RH  076%=      5-min Rain = 0
KSC1 250416Z 14011KT 24/19 A2992 RMK A01 T02360191  RH  076%=      5-min Rain = 0
KSC1 250417Z 14010KT 24/19 A2992 RMK A01 T02350191  RH  076%=      5-min Rain = 0
KSC1 250418Z 14011KT 24/19 A2992 RMK A01 T02350191  RH  076%=      5-min Rain = 0
KSC1 250419Z 13010KT 23/19 A2992 RMK A01 T02340191  RH  077%=      5-min Rain = 0
KSC1 250420Z 13011KT 23/19 A2992 RMK A01 T02340191  RH  077%=      5-min Rain = 0
KSC1 250421Z 13010KT 23/19 A2992 RMK A01 T02330191  RH  077%=      5-min Rain = 0
KSC1 250422Z 13008KT 23/19 A2992 RMK A01 T02330191  RH  077%=      5-min Rain = 0
KSC1 250423Z 13009KT 23/19 A2992 RMK A01 T02330192  RH  078%=      5-min Rain = 0
KSC1 250424Z 13010KT 23/19 A2992 RMK A01 T02320192  RH  078%=      5-min Rain = 0
KSC1 250425Z 14009KT 23/19 A2992 RMK A01 T02320192  RH  078%=      5-min Rain = 0
KSC1 250426Z 14009KT 23/19 A2992 RMK A01 T02310192  RH  079%=      5-min Rain = 0
KSC1 250427Z 14008KT 23/19 A2993 RMK A01 T02300192  RH  079%=      5-min Rain = 0
KSC1 250428Z 14010KT 23/19 A2993 RMK A01 T02310192  RH  079%=      5-min Rain = 0
KSC1 250429Z 14010KT 23/19 A2993 RMK A01 T02310192  RH  079%=      5-min Rain = 0
KSC1 250430Z 14009KT 23/19 A2993 RMK A01 T02310192  RH  079%=      5-min Rain = 0
KSC1 250431Z 14008KT 23/19 A2993 RMK A01 T02310192  RH  079%=      5-min Rain = 0
KSC1 250432Z 14009KT 23/19 A2993 RMK A01 T02310193  RH  079%=      5-min Rain = 0
KSC1 250433Z 14009KT 23/19 A2993 RMK A01 T02300192  RH  079%=      5-min Rain = 0
KSC1 250434Z 14009KT 23/19 A2993 RMK A01 T02300193  RH  079%=      5-min Rain = 0
KSC1 250435Z 15009KT 23/19 A2993 RMK A01 T02300193  RH  079%=      5-min Rain = 0
KSC1 250436Z 14008KT 23/19 A2993 RMK A01 T02300192  RH  079%=      5-min Rain = 0
KSC1 250437Z 14008KT 23/19 A2993 RMK A01 T02300193  RH  079%=      5-min Rain = 0
KSC1 250438Z 14009KT 23/19 A2993 RMK A01 T02300193  RH  079%=      5-min Rain = 0
KSC1 250439Z 14009KT 23/19 A2993 RMK A01 T02300193  RH  080%=      5-min Rain = 0
KSC1 250440Z 14008KT 23/19 A2993 RMK A01 T02300193  RH  080%=      5-min Rain = 0
KSC1 250441Z 14010KT 23/19 A2993 RMK A01 T02300193  RH  080%=      5-min Rain = 0
KSC1 250442Z 14008KT 23/19 A2993 RMK A01 T02300193  RH  080%=      5-min Rain = 0
KSC1 250443Z 14008KT 23/19 A2994 RMK A01 T02300193  RH  080%=      5-min Rain = 0
KSC1 250444Z 13007KT 23/19 A2994 RMK A01 T02290193  RH  080%=      5-min Rain = 0
KSC1 250445Z 14010KT 23/19 A2994 RMK A01 T02290193  RH  080%=      5-min Rain = 0
KSC1 250446Z 14010KT 23/19 A2994 RMK A01 T02290193  RH  080%=      5-min Rain = 0
KSC1 250447Z 13009KT 23/19 A2994 RMK A01 T02300193  RH  080%=      5-min Rain = 0
KSC1 250448Z 14008KT 23/19 A2994 RMK A01 T02300193  RH  080%=      5-min Rain = 0
KSC1 250449Z 13008KT 23/19 A2994 RMK A01 T02290193  RH  080%=      5-min Rain = 0
KSC1 250450Z 13008KT 23/19 A2994 RMK A01 T02290193  RH  080%=      5-min Rain = 0
KSC1 250451Z 14009KT 23/19 A2994 RMK A01 T02280193  RH  081%=      5-min Rain = 0
KSC1 250452Z 14007KT 23/19 A2994 RMK A01 T02280194  RH  081%=      5-min Rain = 0
KSC1 250453Z 13008KT 23/19 A2994 RMK A01 T02280194  RH  081%=      5-min Rain = 0
KSC1 250454Z 14007KT 23/19 A2994 RMK A01 T02270194  RH  081%=      5-min Rain = 0
KSC1 250455Z 13008KT 23/19 A2994 RMK A01 T02260194  RH  082%=      5-min Rain = 0
KSC1 250456Z 13008KT 23/19 A2994 RMK A01 T02260194  RH  082%=      5-min Rain = 0
KSC1 250457Z 13009KT 23/19 A2994 RMK A01 T02250194  RH  082%=      5-min Rain = 0
KSC1 250458Z 13009KT 23/19 A2994 RMK A01 T02260194  RH  083%=      5-min Rain = 0
KSC1 250459Z 13008KT 23/19 A2994 RMK A01 T02250194  RH  083%=      5-min Rain = 0

Page generated in 0.142 seconds.